Observation data for Earth on 03/01/2021      Previous  Date  Next       Current Mesonet Observations  Soil Data  Daily Summary Page  Observations in Plain Language
KEA1 010600Z 02012KT 01/M11 A3017 RMK A01 T00101107  RH  041%=      5-min Rain = 0
KEA1 010601Z 03013KT 01/M11 A3017 RMK A01 T00101107  RH  041%=      5-min Rain = 0
KEA1 010602Z 03012KT 01/M11 A3017 RMK A01 T00101107  RH  041%=      5-min Rain = 0
KEA1 010603Z 02012KT 01/M11 A3017 RMK A01 T00101107  RH  041%=      5-min Rain = 0
KEA1 010604Z 03013KT 01/M11 A3017 RMK A01 T00101107  RH  041%=      5-min Rain = 0
KEA1 010605Z 03012KT 01/M11 A3017 RMK A01 T00111107  RH  041%=      5-min Rain = 0
KEA1 010606Z 03011KT 01/M11 A3017 RMK A01 T00111107  RH  041%=      5-min Rain = 0
KEA1 010607Z 03011KT 01/M11 A3017 RMK A01 T00121107  RH  041%=      5-min Rain = 0
KEA1 010608Z 03012KT 01/M11 A3017 RMK A01 T00121107  RH  041%=      5-min Rain = 0
KEA1 010609Z 03011KT 01/M11 A3017 RMK A01 T00121107  RH  041%=      5-min Rain = 0
KEA1 010610Z 03013KT 01/M11 A3017 RMK A01 T00121107  RH  041%=      5-min Rain = 0
KEA1 010611Z 03013KT 01/M11 A3017 RMK A01 T00131107  RH  041%=      5-min Rain = 0
KEA1 010612Z 03013KT 01/M11 A3016 RMK A01 T00131107  RH  040%=      5-min Rain = 0
KEA1 010613Z 03013KT 01/M11 A3016 RMK A01 T00131107  RH  040%=      5-min Rain = 0
KEA1 010614Z 03013KT 01/M11 A3016 RMK A01 T00131107  RH  040%=      5-min Rain = 0
KEA1 010615Z 03015KT 01/M11 A3016 RMK A01 T00131107  RH  040%=      5-min Rain = 0
KEA1 010616Z 03011KT 01/M11 A3016 RMK A01 T00141106  RH  040%=      5-min Rain = 0
KEA1 010617Z 03012KT 01/M11 A3016 RMK A01 T00141106  RH  040%=      5-min Rain = 0
KEA1 010618Z 03011KT 01/M11 A3017 RMK A01 T00141106  RH  040%=      5-min Rain = 0
KEA1 010619Z 03011KT 01/M11 A3017 RMK A01 T00141106  RH  040%=      5-min Rain = 0
KEA1 010620Z 03012KT 02/M11 A3017 RMK A01 T00151106  RH  040%=      5-min Rain = 0
KEA1 010621Z 02012KT 02/M11 A3017 RMK A01 T00151106  RH  040%=      5-min Rain = 0
KEA1 010622Z 02013KT 02/M11 A3017 RMK A01 T00151106  RH  040%=      5-min Rain = 0
KEA1 010623Z 02012KT 02/M11 A3017 RMK A01 T00161106  RH  040%=      5-min Rain = 0
KEA1 010624Z 02013KT 02/M11 A3017 RMK A01 T00151106  RH  040%=      5-min Rain = 0
KEA1 010625Z 02013KT 02/M11 A3016 RMK A01 T00151106  RH  040%=      5-min Rain = 0
KEA1 010626Z 03013KT 02/M11 A3016 RMK A01 T00151105  RH  040%=      5-min Rain = 0
KEA1 010627Z 03012KT 02/M11 A3016 RMK A01 T00151105  RH  040%=      5-min Rain = 0
KEA1 010628Z 03014KT 02/M11 A3016 RMK A01 T00151106  RH  040%=      5-min Rain = 0
KEA1 010629Z 02014KT 02/M11 A3016 RMK A01 T00151106  RH  040%=      5-min Rain = 0
KEA1 010630Z 02013KT 02/M11 A3016 RMK A01 T00151106  RH  040%=      5-min Rain = 0
KEA1 010631Z 02013KT 01/M11 A3016 RMK A01 T00141106  RH  040%=      5-min Rain = 0
KEA1 010632Z 03012KT 01/M11 A3017 RMK A01 T00141106  RH  040%=      5-min Rain = 0
KEA1 010633Z 03012KT 01/M11 A3017 RMK A01 T00141106  RH  040%=      5-min Rain = 0
KEA1 010634Z 03012KT 01/M11 A3017 RMK A01 T00141106  RH  040%=      5-min Rain = 0
KEA1 010635Z 03011KT 01/M11 A3017 RMK A01 T00141106  RH  040%=      5-min Rain = 0
KEA1 010636Z 03011KT 01/M11 A3017 RMK A01 T00141106  RH  040%=      5-min Rain = 0
KEA1 010637Z 02010KT 01/M11 A3018 RMK A01 T00131107  RH  041%=      5-min Rain = 0
KEA1 010638Z 03010KT 01/M11 A3018 RMK A01 T00131106  RH  041%=      5-min Rain = 0
KEA1 010639Z 02011KT 01/M11 A3018 RMK A01 T00121106  RH  041%=      5-min Rain = 0
KEA1 010640Z 02012KT 01/M11 A3018 RMK A01 T00121106  RH  041%=      5-min Rain = 0
KEA1 010641Z 03012KT 01/M11 A3017 RMK A01 T00111106  RH  041%=      5-min Rain = 0
KEA1 010642Z 03013KT 01/M11 A3017 RMK A01 T00111105  RH  041%=      5-min Rain = 0
KEA1 010643Z 03013KT 01/M11 A3017 RMK A01 T00111106  RH  041%=      5-min Rain = 0
KEA1 010644Z 03013KT 01/M11 A3017 RMK A01 T00111106  RH  041%=      5-min Rain = 0
KEA1 010645Z 03013KT 01/M11 A3017 RMK A01 T00111106  RH  041%=      5-min Rain = 0
KEA1 010646Z 03013KT 01/M11 A3017 RMK A01 T00121105  RH  041%=      5-min Rain = 0
KEA1 010647Z 03014KT 01/M11 A3017 RMK A01 T00111106  RH  041%=      5-min Rain = 0
KEA1 010648Z 03013KT 01/M11 A3017 RMK A01 T00121106  RH  041%=      5-min Rain = 0
KEA1 010649Z 03015KT 01/M11 A3017 RMK A01 T00121106  RH  041%=      5-min Rain = 0
KEA1 010650Z 03014KT 01/M11 A3017 RMK A01 T00121106  RH  041%=      5-min Rain = 0
KEA1 010651Z 03012KT 01/M11 A3017 RMK A01 T00121106  RH  041%=      5-min Rain = 0
KEA1 010652Z 03013KT 01/M11 A3017 RMK A01 T00131105  RH  041%=      5-min Rain = 0
KEA1 010653Z 03012KT 01/M11 A3017 RMK A01 T00131105  RH  041%=      5-min Rain = 0
KEA1 010654Z 03012KT 01/M11 A3017 RMK A01 T00121105  RH  041%=      5-min Rain = 0
KEA1 010655Z 03011KT 01/M11 A3017 RMK A01 T00121105  RH  041%=      5-min Rain = 0
KEA1 010656Z 03010KT 01/M11 A3017 RMK A01 T00121105  RH  041%=      5-min Rain = 0
KEA1 010657Z 03012KT 01/M11 A3017 RMK A01 T00121105  RH  041%=      5-min Rain = 0
KEA1 010658Z 03010KT 01/M11 A3017 RMK A01 T00131105  RH  041%=      5-min Rain = 0
KEA1 010659Z 03010KT 01/M11 A3017 RMK A01 T00131105  RH  041%=      5-min Rain = 0
KEA1 010700Z 03009KT 01/M10 A3017 RMK A01 T00131104  RH  041%=      5-min Rain = 0
KEA1 010701Z 03010KT 01/M10 A3017 RMK A01 T00131104  RH  041%=      5-min Rain = 0
KEA1 010702Z 03010KT 01/M10 A3018 RMK A01 T00131104  RH  041%=      5-min Rain = 0
KEA1 010703Z 03009KT 01/M10 A3018 RMK A01 T00141104  RH  041%=      5-min Rain = 0
KEA1 010704Z 03009KT 01/M10 A3018 RMK A01 T00131104  RH  041%=      5-min Rain = 0
KEA1 010705Z 03010KT 01/M10 A3018 RMK A01 T00141104  RH  041%=      5-min Rain = 0
KEA1 010706Z 03009KT 01/M10 A3019 RMK A01 T00141103  RH  041%=      5-min Rain = 0
KEA1 010707Z 04009KT 01/M10 A3019 RMK A01 T00141104  RH  041%=      5-min Rain = 0
KEA1 010708Z 03009KT 01/M10 A3019 RMK A01 T00141103  RH  041%=      5-min Rain = 0
KEA1 010709Z 03011KT 02/M10 A3019 RMK A01 T00151103  RH  041%=      5-min Rain = 0
KEA1 010710Z 03009KT 02/M10 A3019 RMK A01 T00151103  RH  041%=      5-min Rain = 0
KEA1 010711Z 04009KT 02/M10 A3019 RMK A01 T00151103  RH  041%=      5-min Rain = 0
KEA1 010712Z 04009KT 02/M10 A302 RMK A01 T00161103  RH  041%=      5-min Rain = 0
KEA1 010713Z 03009KT 02/M10 A302 RMK A01 T00161103  RH  041%=      5-min Rain = 0
KEA1 010714Z 03010KT 02/M10 A302 RMK A01 T00161103  RH  041%=      5-min Rain = 0
KEA1 010715Z 04008KT 02/M10 A3021 RMK A01 T00161103  RH  041%=      5-min Rain = 0
KEA1 010716Z 04010KT 02/M10 A3021 RMK A01 T00171103  RH  041%=      5-min Rain = 0
KEA1 010717Z 04010KT 02/M10 A3021 RMK A01 T00181103  RH  040%=      5-min Rain = 0
KEA1 010718Z 04010KT 02/M10 A3021 RMK A01 T00181103  RH  040%=      5-min Rain = 0
KEA1 010719Z 04011KT 02/M10 A3021 RMK A01 T00191103  RH  040%=      5-min Rain = 0
KEA1 010720Z 04010KT 02/M10 A3021 RMK A01 T00191103  RH  040%=      5-min Rain = 0
KEA1 010721Z 04011KT 02/M10 A3021 RMK A01 T00191103  RH  040%=      5-min Rain = 0
KEA1 010722Z 04011KT 02/M10 A3021 RMK A01 T00191103  RH  040%=      5-min Rain = 0
KEA1 010723Z 04012KT 02/M10 A3021 RMK A01 T00191103  RH  040%=      5-min Rain = 0
KEA1 010724Z 04012KT 02/M10 A3021 RMK A01 T00191103  RH  040%=      5-min Rain = 0
KEA1 010725Z 04012KT 02/M10 A3021 RMK A01 T00191103  RH  040%=      5-min Rain = 0
KEA1 010726Z 04011KT 02/M10 A3021 RMK A01 T00191103  RH  040%=      5-min Rain = 0
KEA1 010727Z 05010KT 02/M10 A3021 RMK A01 T00191103  RH  040%=      5-min Rain = 0
KEA1 010728Z 05009KT 02/M10 A3021 RMK A01 T00191103  RH  040%=      5-min Rain = 0
KEA1 010729Z 04011KT 02/M10 A3021 RMK A01 T00191103  RH  040%=      5-min Rain = 0
KEA1 010730Z 05011KT 02/M10 A3021 RMK A01 T00191103  RH  040%=      5-min Rain = 0
KEA1 010731Z 05011KT 02/M10 A3021 RMK A01 T00191103  RH  040%=      5-min Rain = 0
KEA1 010732Z 05010KT 02/M10 A3021 RMK A01 T00191103  RH  040%=      5-min Rain = 0
KEA1 010733Z 05010KT 02/M10 A3021 RMK A01 T00191103  RH  040%=      5-min Rain = 0
KEA1 010734Z 05011KT 02/M10 A3021 RMK A01 T00191103  RH  040%=      5-min Rain = 0
KEA1 010735Z 05010KT 02/M10 A3021 RMK A01 T00191103  RH  040%=      5-min Rain = 0
KEA1 010736Z 05010KT 02/M10 A3021 RMK A01 T00191103  RH  040%=      5-min Rain = 0
KEA1 010737Z 05011KT 02/M10 A3021 RMK A01 T00191103  RH  040%=      5-min Rain = 0
KEA1 010738Z 05010KT 02/M10 A3021 RMK A01 T00191103  RH  040%=      5-min Rain = 0
KEA1 010739Z 05010KT 02/M10 A3021 RMK A01 T00191102  RH  040%=      5-min Rain = 0
KEA1 010740Z 05010KT 02/M10 A3021 RMK A01 T00191102  RH  040%=      5-min Rain = 0
KEA1 010741Z 06009KT 02/M10 A3021 RMK A01 T00191102  RH  040%=      5-min Rain = 0
KEA1 010742Z 06010KT 02/M10 A3021 RMK A01 T00191102  RH  040%=      5-min Rain = 0
KEA1 010743Z 06009KT 02/M10 A3021 RMK A01 T00181102  RH  040%=      5-min Rain = 0
KEA1 010744Z 06010KT 02/M10 A3021 RMK A01 T00181102  RH  040%=      5-min Rain = 0
KEA1 010745Z 06010KT 02/M10 A3021 RMK A01 T00181102  RH  041%=      5-min Rain = 0
KEA1 010746Z 05009KT 02/M10 A3021 RMK A01 T00181101  RH  041%=      5-min Rain = 0
KEA1 010747Z 05010KT 02/M10 A3021 RMK A01 T00181102  RH  041%=      5-min Rain = 0
KEA1 010748Z 05010KT 02/M10 A3021 RMK A01 T00181102  RH  041%=      5-min Rain = 0
KEA1 010749Z 05009KT 02/M10 A3021 RMK A01 T00181102  RH  041%=      5-min Rain = 0
KEA1 010750Z 04009KT 02/M10 A3021 RMK A01 T00181102  RH  041%=      5-min Rain = 0
KEA1 010751Z 04009KT 02/M10 A3021 RMK A01 T00181101  RH  041%=      5-min Rain = 0
KEA1 010752Z 05011KT 02/M10 A3021 RMK A01 T00181101  RH  041%=      5-min Rain = 0
KEA1 010753Z 05010KT 02/M10 A3021 RMK A01 T00181102  RH  041%=      5-min Rain = 0
KEA1 010754Z 05010KT 02/M10 A3021 RMK A01 T00181102  RH  041%=      5-min Rain = 0
KEA1 010755Z 05010KT 02/M10 A3021 RMK A01 T00191101  RH  041%=      5-min Rain = 0
KEA1 010756Z 05009KT 02/M10 A3021 RMK A01 T00191102  RH  040%=      5-min Rain = 0
KEA1 010757Z 04008KT 02/M10 A3021 RMK A01 T00191102  RH  040%=      5-min Rain = 0
KEA1 010758Z 04009KT 02/M10 A3021 RMK A01 T00191101  RH  041%=      5-min Rain = 0
KEA1 010759Z 04009KT 02/M10 A3021 RMK A01 T00191102  RH  041%=      5-min Rain = 0
KEA1 010800Z 04010KT 02/M10 A3021 RMK A01 T00191101  RH  040%=      5-min Rain = 0
KEA1 010801Z 04009KT 02/M10 A3021 RMK A01 T00191101  RH  040%=      5-min Rain = 0
KEA1 010802Z 04010KT 02/M10 A3021 RMK A01 T00191102  RH  040%=      5-min Rain = 0
KEA1 010803Z 03011KT 02/M10 A302 RMK A01 T00191102  RH  040%=      5-min Rain = 0
KEA1 010804Z 03011KT 02/M10 A302 RMK A01 T00191102  RH  040%=      5-min Rain = 0
KEA1 010805Z 03010KT 02/M10 A302 RMK A01 T00191101  RH  040%=      5-min Rain = 0
KEA1 010806Z 02010KT 02/M10 A302 RMK A01 T00191101  RH  041%=      5-min Rain = 0
KEA1 010807Z 02011KT 02/M10 A302 RMK A01 T00191101  RH  041%=      5-min Rain = 0
KEA1 010808Z 02011KT 02/M10 A302 RMK A01 T00191101  RH  041%=      5-min Rain = 0
KEA1 010809Z 03011KT 02/M10 A302 RMK A01 T00191101  RH  041%=      5-min Rain = 0
KEA1 010810Z 03011KT 02/M10 A302 RMK A01 T00191101  RH  041%=      5-min Rain = 0
KEA1 010811Z 03011KT 02/M10 A302 RMK A01 T00191100  RH  041%=      5-min Rain = 0
KEA1 010812Z 03011KT 02/M10 A302 RMK A01 T00191101  RH  041%=      5-min Rain = 0
KEA1 010813Z 03012KT 02/M10 A302 RMK A01 T00191101  RH  041%=      5-min Rain = 0
KEA1 010814Z 03011KT 02/M10 A302 RMK A01 T00191101  RH  041%=      5-min Rain = 0
KEA1 010815Z 03010KT 02/M10 A3021 RMK A01 T00191101  RH  041%=      5-min Rain = 0
KEA1 010816Z 03011KT 02/M10 A3021 RMK A01 T00191101  RH  041%=      5-min Rain = 0
KEA1 010817Z 03011KT 02/M10 A3021 RMK A01 T00201100  RH  041%=      5-min Rain = 0
KEA1 010818Z 04012KT 02/M10 A3021 RMK A01 T00201101  RH  040%=      5-min Rain = 0
KEA1 010819Z 03010KT 02/M10 A3021 RMK A01 T00201101  RH  040%=      5-min Rain = 0
KEA1 010820Z 03010KT 02/M10 A3021 RMK A01 T00201101  RH  040%=      5-min Rain = 0
KEA1 010821Z 03011KT 02/M10 A3021 RMK A01 T00201100  RH  041%=      5-min Rain = 0
KEA1 010822Z 03012KT 02/M10 A302 RMK A01 T00201100  RH  041%=      5-min Rain = 0
KEA1 010823Z 02013KT 02/M10 A302 RMK A01 T00201100  RH  041%=      5-min Rain = 0
KEA1 010824Z 02013KT 02/M10 A302 RMK A01 T00201100  RH  041%=      5-min Rain = 0
KEA1 010825Z 02012KT 02/M10 A302 RMK A01 T00201100  RH  041%=      5-min Rain = 0
KEA1 010826Z 02011KT 02/M10 A302 RMK A01 T00201100  RH  041%=      5-min Rain = 0
KEA1 010827Z 02012KT 02/M10 A302 RMK A01 T00201100  RH  041%=      5-min Rain = 0
KEA1 010828Z 02012KT 02/M10 A302 RMK A01 T00201099  RH  041%=      5-min Rain = 0
KEA1 010829Z 02012KT 02/M10 A302 RMK A01 T00201099  RH  041%=      5-min Rain = 0
KEA1 010830Z 01010KT 02/M10 A302 RMK A01 T00201100  RH  041%=      5-min Rain = 0
KEA1 010831Z 02011KT 02/M10 A302 RMK A01 T00201099  RH  041%=      5-min Rain = 0
KEA1 010832Z 02011KT 02/M10 A302 RMK A01 T00201099  RH  041%=      5-min Rain = 0
KEA1 010833Z 02010KT 02/M10 A302 RMK A01 T00201099  RH  041%=      5-min Rain = 0
KEA1 010834Z 02010KT 02/M10 A302 RMK A01 T00191099  RH  041%=      5-min Rain = 0
KEA1 010835Z 02010KT 02/M10 A302 RMK A01 T00191099  RH  041%=      5-min Rain = 0
KEA1 010836Z 02010KT 02/M10 A302 RMK A01 T00191099  RH  041%=      5-min Rain = 0
KEA1 010837Z 03011KT 02/M10 A302 RMK A01 T00191099  RH  041%=      5-min Rain = 0
KEA1 010838Z 02009KT 02/M10 A302 RMK A01 T00191099  RH  041%=      5-min Rain = 0
KEA1 010839Z 03010KT 02/M10 A302 RMK A01 T00191099  RH  041%=      5-min Rain = 0
KEA1 010840Z 03010KT 02/M10 A302 RMK A01 T00191099  RH  041%=      5-min Rain = 0
KEA1 010841Z 03010KT 02/M10 A302 RMK A01 T00191099  RH  041%=      5-min Rain = 0
KEA1 010842Z 03009KT 02/M10 A302 RMK A01 T00191099  RH  041%=      5-min Rain = 0
KEA1 010843Z 03010KT 02/M10 A302 RMK A01 T00191099  RH  041%=      5-min Rain = 0
KEA1 010844Z 02009KT 02/M10 A302 RMK A01 T00191099  RH  041%=      5-min Rain = 0
KEA1 010845Z 02009KT 02/M10 A302 RMK A01 T00191099  RH  041%=      5-min Rain = 0
KEA1 010846Z 03009KT 02/M10 A302 RMK A01 T00191099  RH  041%=      5-min Rain = 0
KEA1 010847Z 03009KT 02/M10 A302 RMK A01 T00191099  RH  041%=      5-min Rain = 0
KEA1 010848Z 03010KT 02/M10 A302 RMK A01 T00191099  RH  041%=      5-min Rain = 0
KEA1 010849Z 03011KT 02/M10 A302 RMK A01 T00201099  RH  041%=      5-min Rain = 0
KEA1 010850Z 03009KT 02/M10 A302 RMK A01 T00201099  RH  041%=      5-min Rain = 0
KEA1 010851Z 03010KT 02/M10 A302 RMK A01 T00201099  RH  041%=      5-min Rain = 0
KEA1 010852Z 03008KT 02/M10 A302 RMK A01 T00201098  RH  041%=      5-min Rain = 0
KEA1 010853Z 03009KT 02/M10 A3019 RMK A01 T00201098  RH  041%=      5-min Rain = 0
KEA1 010854Z 02009KT 02/M10 A3019 RMK A01 T00191098  RH  041%=      5-min Rain = 0
KEA1 010855Z 03009KT 02/M10 A3019 RMK A01 T00201098  RH  041%=      5-min Rain = 0
KEA1 010856Z 03010KT 02/M10 A3019 RMK A01 T00191098  RH  042%=      5-min Rain = 0
KEA1 010857Z 02010KT 02/M10 A3019 RMK A01 T00191098  RH  041%=      5-min Rain = 0
KEA1 010858Z 02011KT 02/M10 A3019 RMK A01 T00191098  RH  041%=      5-min Rain = 0
KEA1 010859Z 02010KT 02/M10 A3019 RMK A01 T00201098  RH  041%=      5-min Rain = 0
KEA1 010900Z 02010KT 02/M10 A3018 RMK A01 T00201098  RH  041%=      5-min Rain = 0
KEA1 010901Z 02011KT 02/M10 A3018 RMK A01 T00201098  RH  041%=      5-min Rain = 0
KEA1 010902Z 02011KT 02/M10 A3018 RMK A01 T00201098  RH  041%=      5-min Rain = 0
KEA1 010903Z 01011KT 02/M10 A3018 RMK A01 T00211098  RH  041%=      5-min Rain = 0
KEA1 010904Z 01010KT 02/M10 A3018 RMK A01 T00201099  RH  041%=      5-min Rain = 0
KEA1 010905Z 01010KT 02/M10 A3018 RMK A01 T00211098  RH  041%=      5-min Rain = 0
KEA1 010906Z 01011KT 02/M10 A3018 RMK A01 T00201098  RH  041%=      5-min Rain = 0
KEA1 010907Z 01011KT 02/M10 A3017 RMK A01 T00201099  RH  041%=      5-min Rain = 0
KEA1 010908Z 02011KT 02/M10 A3017 RMK A01 T00201098  RH  041%=      5-min Rain = 0
KEA1 010909Z 02010KT 02/M10 A3017 RMK A01 T00201099  RH  041%=      5-min Rain = 0
KEA1 010910Z 02011KT 02/M10 A3018 RMK A01 T00201098  RH  041%=      5-min Rain = 0
KEA1 010911Z 01010KT 02/M10 A3018 RMK A01 T00201098  RH  041%=      5-min Rain = 0
KEA1 010912Z 01010KT 02/M10 A3018 RMK A01 T00201098  RH  041%=      5-min Rain = 0
KEA1 010913Z 02011KT 02/M10 A3018 RMK A01 T00191098  RH  041%=      5-min Rain = 0
KEA1 010914Z 02011KT 02/M10 A3018 RMK A01 T00191098  RH  041%=      5-min Rain = 0
KEA1 010915Z 03009KT 02/M10 A3018 RMK A01 T00191098  RH  042%=      5-min Rain = 0
KEA1 010916Z 02009KT 02/M10 A3018 RMK A01 T00191098  RH  042%=      5-min Rain = 0
KEA1 010917Z 02010KT 02/M10 A3018 RMK A01 T00181098  RH  042%=      5-min Rain = 0
KEA1 010918Z 02009KT 02/M10 A3018 RMK A01 T00181098  RH  042%=      5-min Rain = 0
KEA1 010919Z 02008KT 02/M10 A3018 RMK A01 T00171098  RH  042%=      5-min Rain = 0
KEA1 010920Z 02008KT 02/M10 A3018 RMK A01 T00171098  RH  042%=      5-min Rain = 0
KEA1 010921Z 03009KT 02/M10 A3017 RMK A01 T00161097  RH  043%=      5-min Rain = 0
KEA1 010922Z 03008KT 02/M10 A3017 RMK A01 T00151098  RH  043%=      5-min Rain = 0
KEA1 010923Z 03010KT 02/M10 A3018 RMK A01 T00151097  RH  043%=      5-min Rain = 0
KEA1 010924Z 03009KT 02/M10 A3017 RMK A01 T00151097  RH  043%=      5-min Rain = 0
KEA1 010925Z 03010KT 01/M10 A3017 RMK A01 T00141097  RH  043%=      5-min Rain = 0
KEA1 010926Z 03009KT 01/M10 A3018 RMK A01 T00131097  RH  044%=      5-min Rain = 0
KEA1 010927Z 03009KT 01/M10 A3018 RMK A01 T00131097  RH  044%=      5-min Rain = 0
KEA1 010928Z 03010KT 01/M10 A3018 RMK A01 T00131097  RH  044%=      5-min Rain = 0
KEA1 010929Z 03010KT 01/M10 A3018 RMK A01 T00131097  RH  044%=      5-min Rain = 0
KEA1 010930Z 04010KT 01/M10 A3018 RMK A01 T00131098  RH  044%=      5-min Rain = 0
KEA1 010931Z 04010KT 01/M10 A3018 RMK A01 T00131098  RH  044%=      5-min Rain = 0
KEA1 010932Z 03009KT 01/M10 A3019 RMK A01 T00131097  RH  044%=      5-min Rain = 0
KEA1 010933Z 04010KT 01/M10 A3019 RMK A01 T00131098  RH  044%=      5-min Rain = 0
KEA1 010934Z 04009KT 01/M10 A3019 RMK A01 T00131098  RH  044%=      5-min Rain = 0
KEA1 010935Z 03009KT 01/M10 A3019 RMK A01 T00141097  RH  043%=      5-min Rain = 0
KEA1 010936Z 04009KT 01/M10 A3019 RMK A01 T00141097  RH  043%=      5-min Rain = 0
KEA1 010937Z 04009KT 01/M10 A3019 RMK A01 T00141097  RH  043%=      5-min Rain = 0
KEA1 010938Z 05009KT 01/M10 A302 RMK A01 T00141097  RH  043%=      5-min Rain = 0
KEA1 010939Z 04010KT 01/M10 A302 RMK A01 T00141097  RH  043%=      5-min Rain = 0
KEA1 010940Z 05008KT 02/M10 A302 RMK A01 T00161097  RH  043%=      5-min Rain = 0
KEA1 010941Z 05009KT 02/M10 A302 RMK A01 T00161097  RH  043%=      5-min Rain = 0
KEA1 010942Z 05008KT 02/M10 A302 RMK A01 T00161097  RH  043%=      5-min Rain = 0
KEA1 010943Z 05007KT 02/M10 A302 RMK A01 T00171097  RH  043%=      5-min Rain = 0
KEA1 010944Z 06007KT 02/M10 A3021 RMK A01 T00171097  RH  043%=      5-min Rain = 0
KEA1 010945Z 06008KT 02/M10 A3021 RMK A01 T00171097  RH  043%=      5-min Rain = 0
KEA1 010946Z 06008KT 02/M10 A3021 RMK A01 T00161097  RH  043%=      5-min Rain = 0
KEA1 010947Z 06008KT 02/M10 A3021 RMK A01 T00171097  RH  043%=      5-min Rain = 0
KEA1 010948Z 06007KT 02/M10 A3021 RMK A01 T00171097  RH  043%=      5-min Rain = 0
KEA1 010949Z 05007KT 02/M10 A3021 RMK A01 T00171097  RH  043%=      5-min Rain = 0
KEA1 010950Z 05008KT 02/M10 A3021 RMK A01 T00171097  RH  042%=      5-min Rain = 0
KEA1 010951Z 04008KT 02/M10 A3021 RMK A01 T00171097  RH  042%=      5-min Rain = 0
KEA1 010952Z 04007KT 02/M10 A3021 RMK A01 T00171097  RH  042%=      5-min Rain = 0
KEA1 010953Z 04007KT 02/M10 A3021 RMK A01 T00181097  RH  042%=      5-min Rain = 0
KEA1 010954Z 05007KT 02/M10 A3021 RMK A01 T00181097  RH  042%=      5-min Rain = 0
KEA1 010955Z 06007KT 02/M10 A3021 RMK A01 T00181097  RH  042%=      5-min Rain = 0
KEA1 010956Z 06006KT 02/M10 A3022 RMK A01 T00181097  RH  042%=      5-min Rain = 0
KEA1 010957Z 06006KT 02/M10 A3022 RMK A01 T00181097  RH  042%=      5-min Rain = 0
KEA1 010958Z 07007KT 02/M10 A3022 RMK A01 T00181097  RH  042%=      5-min Rain = 0
KEA1 010959Z 07006KT 02/M10 A3022 RMK A01 T00171097  RH  042%=      5-min Rain = 0
KEA1 011000Z 07007KT 02/M10 A3022 RMK A01 T00181097  RH  042%=      5-min Rain = 0
KEA1 011001Z 08005KT 02/M10 A3022 RMK A01 T00181096  RH  042%=      5-min Rain = 0
KEA1 011002Z 08005KT 02/M10 A3022 RMK A01 T00181096  RH  043%=      5-min Rain = 0
KEA1 011003Z 07006KT 02/M10 A3022 RMK A01 T00181096  RH  043%=      5-min Rain = 0
KEA1 011004Z 07005KT 02/M10 A3022 RMK A01 T00181096  RH  043%=      5-min Rain = 0
KEA1 011005Z 06005KT 02/M10 A3023 RMK A01 T00181096  RH  043%=      5-min Rain = 0
KEA1 011006Z 06005KT 02/M10 A3023 RMK A01 T00171097  RH  042%=      5-min Rain = 0
KEA1 011007Z 06005KT 02/M10 A3023 RMK A01 T00181096  RH  043%=      5-min Rain = 0
KEA1 011008Z 05004KT 02/M10 A3023 RMK A01 T00181096  RH  043%=      5-min Rain = 0
KEA1 011009Z 06004KT 02/M10 A3023 RMK A01 T00181096  RH  043%=      5-min Rain = 0
KEA1 011010Z 06003KT 02/M10 A3023 RMK A01 T00171096  RH  043%=      5-min Rain = 0
KEA1 011011Z 06005KT 02/M10 A3023 RMK A01 T00181096  RH  043%=      5-min Rain = 0
KEA1 011012Z 07006KT 02/M10 A3024 RMK A01 T00171096  RH  043%=      5-min Rain = 0
KEA1 011013Z 07005KT 02/M10 A3024 RMK A01 T00171096  RH  043%=      5-min Rain = 0
KEA1 011014Z 07005KT 02/M10 A3024 RMK A01 T00171096  RH  043%=      5-min Rain = 0
KEA1 011015Z 07005KT 02/M10 A3024 RMK A01 T00171096  RH  043%=      5-min Rain = 0
KEA1 011016Z 06004KT 02/M10 A3024 RMK A01 T00161096  RH  043%=      5-min Rain = 0
KEA1 011017Z 07004KT 02/M10 A3024 RMK A01 T00161095  RH  043%=      5-min Rain = 0
KEA1 011018Z 06004KT 02/M10 A3024 RMK A01 T00161095  RH  043%=      5-min Rain = 0
KEA1 011019Z 06004KT 02/M10 A3024 RMK A01 T00161095  RH  043%=      5-min Rain = 0
KEA1 011020Z 06005KT 02/M10 A3024 RMK A01 T00151095  RH  044%=      5-min Rain = 0
KEA1 011021Z 06005KT 02/M10 A3024 RMK A01 T00161095  RH  044%=      5-min Rain = 0
KEA1 011022Z 07005KT 02/M10 A3024 RMK A01 T00161095  RH  044%=      5-min Rain = 0
KEA1 011023Z 07005KT 02/M10 A3024 RMK A01 T00151095  RH  044%=      5-min Rain = 0
KEA1 011024Z 07005KT 02/M10 A3024 RMK A01 T00151095  RH  044%=      5-min Rain = 0
KEA1 011025Z 06005KT 02/M10 A3024 RMK A01 T00151095  RH  044%=      5-min Rain = 0
KEA1 011026Z 06005KT 02/M10 A3024 RMK A01 T00151095  RH  044%=      5-min Rain = 0
KEA1 011027Z 06005KT 02/M09 A3024 RMK A01 T00151094  RH  044%=      5-min Rain = 0
KEA1 011028Z 07005KT 02/M09 A3024 RMK A01 T00151094  RH  044%=      5-min Rain = 0
KEA1 011029Z 07005KT 02/M09 A3024 RMK A01 T00151094  RH  044%=      5-min Rain = 0
KEA1 011030Z 07005KT 02/M09 A3024 RMK A01 T00151094  RH  044%=      5-min Rain = 0
KEA1 011031Z 07005KT 02/M09 A3024 RMK A01 T00151094  RH  044%=      5-min Rain = 0
KEA1 011032Z 06006KT 02/M09 A3024 RMK A01 T00151094  RH  044%=      5-min Rain = 0
KEA1 011033Z 06005KT 01/M09 A3024 RMK A01 T00141094  RH  044%=      5-min Rain = 0
KEA1 011034Z 06004KT 01/M09 A3023 RMK A01 T00141094  RH  044%=      5-min Rain = 0
KEA1 011035Z 06005KT 02/M09 A3023 RMK A01 T00151093  RH  044%=      5-min Rain = 0
KEA1 011036Z 07005KT 02/M09 A3023 RMK A01 T00151094  RH  044%=      5-min Rain = 0
KEA1 011037Z 07005KT 02/M09 A3024 RMK A01 T00151094  RH  044%=      5-min Rain = 0
KEA1 011038Z 08005KT 02/M09 A3024 RMK A01 T00151093  RH  045%=      5-min Rain = 0
KEA1 011039Z 07004KT 01/M09 A3024 RMK A01 T00141093  RH  045%=      5-min Rain = 0
KEA1 011040Z 07005KT 01/M09 A3024 RMK A01 T00141093  RH  045%=      5-min Rain = 0
KEA1 011041Z 07005KT 01/M09 A3024 RMK A01 T00141094  RH  044%=      5-min Rain = 0
KEA1 011042Z 07005KT 01/M09 A3024 RMK A01 T00141094  RH  044%=      5-min Rain = 0
KEA1 011043Z 07005KT 02/M09 A3024 RMK A01 T00151094  RH  044%=      5-min Rain = 0
KEA1 011044Z 07005KT 02/M10 A3024 RMK A01 T00151095  RH  044%=      5-min Rain = 0
KEA1 011045Z 07005KT 02/M10 A3024 RMK A01 T00151095  RH  044%=      5-min Rain = 0
KEA1 011046Z 06005KT 02/M10 A3024 RMK A01 T00151095  RH  044%=      5-min Rain = 0
KEA1 011047Z 06005KT 02/M10 A3024 RMK A01 T00161095  RH  044%=      5-min Rain = 0
KEA1 011048Z 05005KT 02/M10 A3024 RMK A01 T00151095  RH  044%=      5-min Rain = 0
KEA1 011049Z 04005KT 02/M10 A3024 RMK A01 T00151095  RH  044%=      5-min Rain = 0
KEA1 011050Z 04005KT 02/M09 A3024 RMK A01 T00161094  RH  044%=      5-min Rain = 0
KEA1 011051Z 03004KT 02/M09 A3024 RMK A01 T00151094  RH  044%=      5-min Rain = 0
KEA1 011052Z 02005KT 02/M09 A3024 RMK A01 T00151094  RH  044%=      5-min Rain = 0
KEA1 011053Z 02005KT 01/M09 A3024 RMK A01 T00141094  RH  045%=      5-min Rain = 0
KEA1 011054Z 02005KT 01/M09 A3024 RMK A01 T00141093  RH  045%=      5-min Rain = 0
KEA1 011055Z 02005KT 01/M09 A3024 RMK A01 T00131093  RH  045%=      5-min Rain = 0
KEA1 011056Z 01005KT 01/M09 A3024 RMK A01 T00131093  RH  045%=      5-min Rain = 0
KEA1 011057Z 02006KT 01/M09 A3024 RMK A01 T00121093  RH  045%=      5-min Rain = 0
KEA1 011058Z 01005KT 01/M09 A3024 RMK A01 T00121093  RH  046%=      5-min Rain = 0
KEA1 011059Z 01005KT 01/M09 A3024 RMK A01 T00121093  RH  046%=      5-min Rain = 0
KEA1 011100Z 00004KT 01/M09 A3024 RMK A01 T00111093  RH  046%=      5-min Rain = 0
KEA1 011101Z 00004KT 01/M09 A3024 RMK A01 T00101092  RH  046%=      5-min Rain = 0
KEA1 011102Z 00004KT 01/M09 A3024 RMK A01 T00101092  RH  046%=      5-min Rain = 0
KEA1 011103Z 01004KT 01/M09 A3025 RMK A01 T00101092  RH  047%=      5-min Rain = 0
KEA1 011104Z 01003KT 01/M09 A3025 RMK A01 T00091092  RH  047%=      5-min Rain = 0
KEA1 011105Z 02003KT 01/M09 A3025 RMK A01 T00091093  RH  047%=      5-min Rain = 0
KEA1 011106Z 02003KT 01/M09 A3025 RMK A01 T00091092  RH  047%=      5-min Rain = 0
KEA1 011107Z 02004KT 01/M09 A3025 RMK A01 T00091093  RH  047%=      5-min Rain = 0
KEA1 011108Z 02004KT 01/M09 A3025 RMK A01 T00091093  RH  046%=      5-min Rain = 0
KEA1 011109Z 02004KT 01/M09 A3025 RMK A01 T00091093  RH  047%=      5-min Rain = 0
KEA1 011110Z 02004KT 01/M09 A3025 RMK A01 T00091093  RH  046%=      5-min Rain = 0
KEA1 011111Z 02004KT 01/M09 A3025 RMK A01 T00091093  RH  046%=      5-min Rain = 0
KEA1 011112Z 02004KT 01/M09 A3025 RMK A01 T00091093  RH  046%=      5-min Rain = 0
KEA1 011113Z 02004KT 01/M09 A3025 RMK A01 T00091093  RH  046%=      5-min Rain = 0
KEA1 011114Z 02005KT 01/M09 A3025 RMK A01 T00091092  RH  047%=      5-min Rain = 0
KEA1 011115Z 01005KT 01/M09 A3025 RMK A01 T00091093  RH  047%=      5-min Rain = 0
KEA1 011116Z 00005KT 01/M09 A3025 RMK A01 T00091092  RH  047%=      5-min Rain = 0
KEA1 011117Z 00006KT 01/M09 A3025 RMK A01 T00091092  RH  047%=      5-min Rain = 0
KEA1 011118Z 35006KT 01/M09 A3025 RMK A01 T00091092  RH  047%=      5-min Rain = 0
KEA1 011119Z 34006KT 01/M09 A3025 RMK A01 T00081092  RH  047%=      5-min Rain = 0
KEA1 011120Z 34007KT 01/M09 A3025 RMK A01 T00081092  RH  047%=      5-min Rain = 0
KEA1 011121Z 34007KT 01/M09 A3025 RMK A01 T00081092  RH  047%=      5-min Rain = 0
KEA1 011122Z 33007KT 01/M09 A3025 RMK A01 T00081091  RH  047%=      5-min Rain = 0
KEA1 011123Z 33006KT 01/M09 A3025 RMK A01 T00081091  RH  047%=      5-min Rain = 0
KEA1 011124Z 33006KT 01/M09 A3025 RMK A01 T00081091  RH  047%=      5-min Rain = 0
KEA1 011125Z 33007KT 01/M09 A3025 RMK A01 T00091091  RH  047%=      5-min Rain = 0
KEA1 011126Z 33007KT 01/M09 A3025 RMK A01 T00081091  RH  047%=      5-min Rain = 0
KEA1 011127Z 33006KT 01/M09 A3025 RMK A01 T00081092  RH  047%=      5-min Rain = 0
KEA1 011128Z 33006KT 01/M09 A3025 RMK A01 T00091091  RH  047%=      5-min Rain = 0
KEA1 011129Z 33006KT 01/M09 A3025 RMK A01 T00091091  RH  048%=      5-min Rain = 0
KEA1 011130Z 34006KT 01/M09 A3025 RMK A01 T00091090  RH  048%=      5-min Rain = 0
KEA1 011131Z 33006KT 01/M09 A3025 RMK A01 T00091090  RH  048%=      5-min Rain = 0
KEA1 011132Z 35005KT 01/M09 A3025 RMK A01 T00091090  RH  048%=      5-min Rain = 0
KEA1 011133Z 35006KT 01/M09 A3025 RMK A01 T00091089  RH  048%=      5-min Rain = 0
KEA1 011134Z 00005KT 01/M09 A3025 RMK A01 T00081090  RH  048%=      5-min Rain = 0
KEA1 011135Z 02005KT 01/M09 A3025 RMK A01 T00081090  RH  048%=      5-min Rain = 0
KEA1 011136Z 01005KT 01/M09 A3025 RMK A01 T00091091  RH  047%=      5-min Rain = 0
KEA1 011137Z 02004KT 01/M09 A3025 RMK A01 T00091090  RH  047%=      5-min Rain = 0
KEA1 011138Z 02005KT 01/M09 A3025 RMK A01 T00081091  RH  047%=      5-min Rain = 0
KEA1 011139Z 02005KT 01/M09 A3025 RMK A01 T00081092  RH  047%=      5-min Rain = 0
KEA1 011140Z 03004KT 01/M09 A3025 RMK A01 T00091091  RH  047%=      5-min Rain = 0
KEA1 011141Z 02005KT 01/M09 A3025 RMK A01 T00091092  RH  047%=      5-min Rain = 0
KEA1 011142Z 02004KT 01/M09 A3025 RMK A01 T00081092  RH  047%=      5-min Rain = 0
KEA1 011143Z 02004KT 01/M09 A3025 RMK A01 T00081092  RH  047%=      5-min Rain = 0
KEA1 011144Z 02005KT 01/M09 A3025 RMK A01 T00081091  RH  047%=      5-min Rain = 0
KEA1 011145Z 01005KT 01/M09 A3025 RMK A01 T00081091  RH  047%=      5-min Rain = 0
KEA1 011146Z 02005KT 01/M09 A3025 RMK A01 T00081091  RH  048%=      5-min Rain = 0
KEA1 011147Z 02005KT 01/M09 A3025 RMK A01 T00081091  RH  048%=      5-min Rain = 0
KEA1 011148Z 02005KT 01/M09 A3025 RMK A01 T00081091  RH  048%=      5-min Rain = 0
KEA1 011149Z 02006KT 01/M09 A3025 RMK A01 T00071091  RH  048%=      5-min Rain = 0
KEA1 011150Z 02005KT 01/M09 A3025 RMK A01 T00071090  RH  048%=      5-min Rain = 0
KEA1 011151Z 02007KT 01/M09 A3025 RMK A01 T00071090  RH  048%=      5-min Rain = 0
KEA1 011152Z 02006KT 01/M09 A3025 RMK A01 T00071090  RH  048%=      5-min Rain = 0
KEA1 011153Z 01006KT 01/M09 A3025 RMK A01 T00071090  RH  048%=      5-min Rain = 0
KEA1 011154Z 02006KT 01/M09 A3025 RMK A01 T00071090  RH  048%=      5-min Rain = 0
KEA1 011155Z 02005KT 01/M09 A3025 RMK A01 T00071090  RH  048%=      5-min Rain = 0
KEA1 011156Z 01006KT 01/M09 A3025 RMK A01 T00071090  RH  048%=      5-min Rain = 0
KEA1 011157Z 02005KT 01/M09 A3025 RMK A01 T00071090  RH  048%=      5-min Rain = 0
KEA1 011158Z 02005KT 01/M09 A3025 RMK A01 T00071090  RH  048%=      5-min Rain = 0
KEA1 011159Z 02004KT 01/M09 A3025 RMK A01 T00071090  RH  049%=      5-min Rain = 0
KEA1 011200Z 02004KT 01/M09 A3026 RMK A01 T00071089  RH  049%=      5-min Rain = 0
KEA1 011201Z 01005KT 01/M09 A3026 RMK A01 T00071089  RH  049%=      5-min Rain = 0
KEA1 011202Z 01005KT 01/M09 A3026 RMK A01 T00071090  RH  049%=      5-min Rain = 0
KEA1 011203Z 01005KT 01/M09 A3026 RMK A01 T00071089  RH  049%=      5-min Rain = 0
KEA1 011204Z 00005KT 01/M09 A3026 RMK A01 T00071089  RH  049%=      5-min Rain = 0
KEA1 011205Z 00006KT 01/M09 A3026 RMK A01 T00061089  RH  049%=      5-min Rain = 0
KEA1 011206Z 00006KT 01/M09 A3026 RMK A01 T00061089  RH  049%=      5-min Rain = 0
KEA1 011207Z 00006KT 01/M09 A3026 RMK A01 T00061089  RH  049%=      5-min Rain = 0
KEA1 011208Z 00006KT 01/M09 A3026 RMK A01 T00061090  RH  049%=      5-min Rain = 0
KEA1 011209Z 00006KT 01/M09 A3026 RMK A01 T00051090  RH  049%=      5-min Rain = 0
KEA1 011210Z 00007KT 01/M09 A3026 RMK A01 T00051090  RH  049%=      5-min Rain = 0
KEA1 011211Z 00006KT 01/M09 A3026 RMK A01 T00061090  RH  049%=      5-min Rain = 0
KEA1 011212Z 00006KT 01/M09 A3026 RMK A01 T00051090  RH  049%=      5-min Rain = 0
KEA1 011213Z 00006KT 01/M09 A3026 RMK A01 T00051090  RH  049%=      5-min Rain = 0
KEA1 011214Z 00007KT 00/M09 A3026 RMK A01 T00041090  RH  049%=      5-min Rain = 0
KEA1 011215Z 00006KT 01/M09 A3026 RMK A01 T00051089  RH  049%=      5-min Rain = 0
KEA1 011216Z 36006KT 00/M09 A3026 RMK A01 T00041090  RH  049%=      5-min Rain = 0
KEA1 011217Z 36006KT 00/M09 A3026 RMK A01 T00041090  RH  049%=      5-min Rain = 0
KEA1 011218Z 36006KT 00/M09 A3026 RMK A01 T00041090  RH  049%=      5-min Rain = 0
KEA1 011219Z 36005KT 00/M09 A3026 RMK A01 T00041090  RH  049%=      5-min Rain = 0
KEA1 011220Z 36005KT 00/M09 A3026 RMK A01 T00041090  RH  049%=      5-min Rain = 0
KEA1 011221Z 35005KT 00/M09 A3026 RMK A01 T00031090  RH  050%=      5-min Rain = 0
KEA1 011222Z 35005KT 00/M09 A3027 RMK A01 T00031091  RH  050%=      5-min Rain = 0
KEA1 011223Z 00005KT 00/M09 A3027 RMK A01 T00021091  RH  050%=      5-min Rain = 0
KEA1 011224Z 35005KT 00/M09 A3027 RMK A01 T00021090  RH  050%=      5-min Rain = 0
KEA1 011225Z 35005KT 00/M09 A3027 RMK A01 T00021091  RH  050%=      5-min Rain = 0
KEA1 011226Z 35006KT 00/M09 A3027 RMK A01 T00011091  RH  050%=      5-min Rain = 0
KEA1 011227Z 35005KT 00/M09 A3027 RMK A01 T00011091  RH  050%=      5-min Rain = 0
KEA1 011228Z 35005KT 00/M09 A3027 RMK A01 T00011091  RH  050%=      5-min Rain = 0
KEA1 011229Z 36005KT 00/09 A3027 RMK A01 T00000-91  RH  050%=      5-min Rain = 0
KEA1 011230Z 36005KT 00/09 A3027 RMK A01 T00-00-91  RH  050%=      5-min Rain = 0
KEA1 011231Z 00005KT 00/09 A3028 RMK A01 T00000-90  RH  051%=      5-min Rain = 0
KEA1 011232Z 01005KT 00/09 A3028 RMK A01 T00000-90  RH  051%=      5-min Rain = 0
KEA1 011233Z 00005KT 00/09 A3028 RMK A01 T00-00-91  RH  050%=      5-min Rain = 0
KEA1 011234Z 00005KT 00/09 A3028 RMK A01 T00-00-91  RH  050%=      5-min Rain = 0
KEA1 011235Z 00005KT 00/09 A3028 RMK A01 T00-00-91  RH  050%=      5-min Rain = 0
KEA1 011236Z 00005KT M00/M09 A3028 RMK A01 T10011091  RH  051%=      5-min Rain = 0
KEA1 011237Z 00005KT M00/M09 A3028 RMK A01 T10011091  RH  051%=      5-min Rain = 0
KEA1 011238Z 36005KT M00/M09 A3028 RMK A01 T10021091  RH  051%=      5-min Rain = 0
KEA1 011239Z 35005KT M00/M09 A3028 RMK A01 T10021091  RH  051%=      5-min Rain = 0
KEA1 011240Z 35005KT M00/M09 A3028 RMK A01 T10031091  RH  051%=      5-min Rain = 0
KEA1 011241Z 36006KT M00/M09 A3028 RMK A01 T10031091  RH  051%=      5-min Rain = 0
KEA1 011242Z 00006KT M00/M09 A3028 RMK A01 T10031091  RH  052%=      5-min Rain = 0
KEA1 011243Z 00005KT M00/M09 A3028 RMK A01 T10041091  RH  052%=      5-min Rain = 0
KEA1 011244Z 00005KT M00/M09 A3028 RMK A01 T10041091  RH  052%=      5-min Rain = 0
KEA1 011245Z 00005KT M00/M09 A3028 RMK A01 T10031091  RH  052%=      5-min Rain = 0
KEA1 011246Z 36005KT M00/M09 A3028 RMK A01 T10041091  RH  052%=      5-min Rain = 0
KEA1 011247Z 36005KT M00/M09 A3028 RMK A01 T10041091  RH  052%=      5-min Rain = 0
KEA1 011248Z 36005KT M01/M09 A3029 RMK A01 T10051091  RH  052%=      5-min Rain = 0
KEA1 011249Z 35005KT M00/M09 A3029 RMK A01 T10041091  RH  052%=      5-min Rain = 0
KEA1 011250Z 35004KT M01/M09 A3029 RMK A01 T10051091  RH  052%=      5-min Rain = 0
KEA1 011251Z 35004KT M01/M09 A3029 RMK A01 T10051091  RH  052%=      5-min Rain = 0
KEA1 011252Z 35004KT M01/M09 A3029 RMK A01 T10051091  RH  052%=      5-min Rain = 0
KEA1 011253Z 35004KT M01/M09 A3029 RMK A01 T10051091  RH  052%=      5-min Rain = 0
KEA1 011254Z 36004KT M01/M09 A3029 RMK A01 T10051090  RH  052%=      5-min Rain = 0
KEA1 011255Z 00004KT M00/M09 A3029 RMK A01 T10041090  RH  052%=      5-min Rain = 0
KEA1 011256Z 00004KT M00/M09 A3029 RMK A01 T10041090  RH  052%=      5-min Rain = 0
KEA1 011257Z 36005KT M00/M09 A3029 RMK A01 T10041089  RH  052%=      5-min Rain = 0
KEA1 011258Z 35004KT M00/M09 A3029 RMK A01 T10031089  RH  052%=      5-min Rain = 0
KEA1 011259Z 35004KT M00/M09 A3029 RMK A01 T10031089  RH  052%=      5-min Rain = 0
KEA1 011300Z 35004KT M00/M09 A3029 RMK A01 T10031089  RH  052%=      5-min Rain = 0
KEA1 011301Z 35003KT M00/M09 A3029 RMK A01 T10021089  RH  052%=      5-min Rain = 0
KEA1 011302Z 35004KT M00/M09 A3029 RMK A01 T10021089  RH  052%=      5-min Rain = 0
KEA1 011303Z 36004KT M00/M09 A303 RMK A01 T10021089  RH  052%=      5-min Rain = 0
KEA1 011304Z 36004KT M00/M09 A303 RMK A01 T10021089  RH  052%=      5-min Rain = 0
KEA1 011305Z 36004KT M00/M09 A303 RMK A01 T10011088  RH  052%=      5-min Rain = 0
KEA1 011306Z 01004KT M00/M09 A303 RMK A01 T10021089  RH  052%=      5-min Rain = 0
KEA1 011307Z 00004KT M00/M09 A303 RMK A01 T10011088  RH  052%=      5-min Rain = 0
KEA1 011308Z 00004KT M00/M09 A303 RMK A01 T10011088  RH  052%=      5-min Rain = 0
KEA1 011309Z 00004KT M00/M09 A303 RMK A01 T10011089  RH  052%=      5-min Rain = 0
KEA1 011310Z 36005KT M00/M09 A303 RMK A01 T10011089  RH  052%=      5-min Rain = 0
KEA1 011311Z 36005KT 00/09 A303 RMK A01 T00-00-88  RH  052%=      5-min Rain = 0
KEA1 011312Z 36005KT M00/M09 A303 RMK A01 T10011089  RH  052%=      5-min Rain = 0
KEA1 011313Z 36006KT M00/M09 A303 RMK A01 T10011089  RH  052%=      5-min Rain = 0
KEA1 011314Z 36006KT 00/09 A303 RMK A01 T00-00-88  RH  052%=      5-min Rain = 0
KEA1 011315Z 35006KT 00/09 A303 RMK A01 T00000-88  RH  051%=      5-min Rain = 0
KEA1 011316Z 35006KT 00/09 A3031 RMK A01 T00000-88  RH  051%=      5-min Rain = 0
KEA1 011317Z 35006KT 00/09 A3031 RMK A01 T00000-88  RH  051%=      5-min Rain = 0
KEA1 011318Z 35005KT 00/M09 A3031 RMK A01 T00011088  RH  051%=      5-min Rain = 0
KEA1 011319Z 36005KT 00/M09 A3031 RMK A01 T00011088  RH  051%=      5-min Rain = 0
KEA1 011320Z 36005KT 00/M09 A3031 RMK A01 T00011088  RH  051%=      5-min Rain = 0
KEA1 011321Z 35005KT 00/M09 A3031 RMK A01 T00021088  RH  051%=      5-min Rain = 0
KEA1 011322Z 35005KT 00/M09 A3031 RMK A01 T00021087  RH  051%=      5-min Rain = 0
KEA1 011323Z 35005KT 00/M09 A3031 RMK A01 T00021087  RH  051%=      5-min Rain = 0
KEA1 011324Z 35005KT 00/M09 A3031 RMK A01 T00021087  RH  051%=      5-min Rain = 0
KEA1 011325Z 35005KT 00/M09 A3031 RMK A01 T00021087  RH  051%=      5-min Rain = 0
KEA1 011326Z 35006KT 00/M09 A3031 RMK A01 T00021088  RH  051%=      5-min Rain = 0
KEA1 011327Z 36006KT 00/M09 A3031 RMK A01 T00021087  RH  051%=      5-min Rain = 0
KEA1 011328Z 35006KT 00/M09 A3031 RMK A01 T00021087  RH  051%=      5-min Rain = 0
KEA1 011329Z 36006KT 00/M09 A3031 RMK A01 T00031087  RH  051%=      5-min Rain = 0
KEA1 011330Z 36005KT 00/M09 A3031 RMK A01 T00031088  RH  051%=      5-min Rain = 0
KEA1 011331Z 36007KT 00/M09 A3031 RMK A01 T00031087  RH  051%=      5-min Rain = 0
KEA1 011332Z 00006KT 00/M09 A3031 RMK A01 T00031087  RH  051%=      5-min Rain = 0
KEA1 011333Z 00007KT 00/M09 A3031 RMK A01 T00031087  RH  051%=      5-min Rain = 0
KEA1 011334Z 00007KT 00/M09 A3031 RMK A01 T00031087  RH  051%=      5-min Rain = 0
KEA1 011335Z 00007KT 00/M09 A3031 RMK A01 T00031088  RH  051%=      5-min Rain = 0
KEA1 011336Z 00007KT 00/M09 A3031 RMK A01 T00041088  RH  050%=      5-min Rain = 0
KEA1 011337Z 00007KT 00/M09 A3031 RMK A01 T00041088  RH  050%=      5-min Rain = 0
KEA1 011338Z 00006KT 00/M09 A3031 RMK A01 T00041088  RH  050%=      5-min Rain = 0
KEA1 011339Z 00006KT 00/M09 A3031 RMK A01 T00041088  RH  050%=      5-min Rain = 0
KEA1 011340Z 01007KT 00/M09 A3031 RMK A01 T00031088  RH  050%=      5-min Rain = 0
KEA1 011341Z 01007KT 00/M09 A3031 RMK A01 T00041088  RH  050%=      5-min Rain = 0
KEA1 011342Z 01006KT 00/M09 A3031 RMK A01 T00041088  RH  050%=      5-min Rain = 0
KEA1 011343Z 01006KT 00/M09 A3031 RMK A01 T00041088  RH  050%=      5-min Rain = 0
KEA1 011344Z 01007KT 00/M09 A3031 RMK A01 T00031088  RH  050%=      5-min Rain = 0
KEA1 011345Z 01007KT 00/M09 A3031 RMK A01 T00041088  RH  050%=      5-min Rain = 0
KEA1 011346Z 00008KT 00/M09 A3031 RMK A01 T00041088  RH  050%=      5-min Rain = 0
KEA1 011347Z 01007KT 01/M09 A3031 RMK A01 T00051088  RH  050%=      5-min Rain = 0
KEA1 011348Z 00008KT 01/M09 A3031 RMK A01 T00051088  RH  050%=      5-min Rain = 0
KEA1 011349Z 01008KT 01/M09 A3031 RMK A01 T00051088  RH  050%=      5-min Rain = 0
KEA1 011350Z 36007KT 01/M09 A3031 RMK A01 T00051088  RH  050%=      5-min Rain = 0
KEA1 011351Z 00007KT 01/M09 A3032 RMK A01 T00061087  RH  050%=      5-min Rain = 0
KEA1 011352Z 00007KT 01/M09 A3032 RMK A01 T00061088  RH  050%=      5-min Rain = 0
KEA1 011353Z 00007KT 01/M09 A3032 RMK A01 T00061087  RH  050%=      5-min Rain = 0
KEA1 011354Z 00007KT 01/M09 A3032 RMK A01 T00061088  RH  050%=      5-min Rain = 0
KEA1 011355Z 00007KT 01/M09 A3032 RMK A01 T00061087  RH  050%=      5-min Rain = 0
KEA1 011356Z 36008KT 01/M09 A3032 RMK A01 T00061087  RH  049%=      5-min Rain = 0
KEA1 011357Z 35007KT 01/M09 A3032 RMK A01 T00071087  RH  049%=      5-min Rain = 0
KEA1 011358Z 35007KT 01/M09 A3032 RMK A01 T00071087  RH  049%=      5-min Rain = 0
KEA1 011359Z 00006KT 01/M09 A3032 RMK A01 T00081087  RH  049%=      5-min Rain = 0
KEA1 011400Z 01006KT 01/M09 A3032 RMK A01 T00081086  RH  049%=      5-min Rain = 0
KEA1 011401Z 01006KT 01/M09 A3032 RMK A01 T00081086  RH  049%=      5-min Rain = 0
KEA1 011402Z 01005KT 01/M09 A3032 RMK A01 T00081086  RH  050%=      5-min Rain = 0
KEA1 011403Z 00007KT 01/M09 A3032 RMK A01 T00091085  RH  050%=      5-min Rain = 0
KEA1 011404Z 00008KT 01/M09 A3032 RMK A01 T00091086  RH  049%=      5-min Rain = 0
KEA1 011405Z 36007KT 01/M09 A3032 RMK A01 T00091086  RH  049%=      5-min Rain = 0
KEA1 011406Z 00008KT 01/M09 A3032 RMK A01 T00091085  RH  049%=      5-min Rain = 0
KEA1 011407Z 36008KT 01/M09 A3032 RMK A01 T00091085  RH  049%=      5-min Rain = 0
KEA1 011408Z 36009KT 01/M09 A3032 RMK A01 T00101085  RH  049%=      5-min Rain = 0
KEA1 011409Z 35008KT 01/M09 A3032 RMK A01 T00101086  RH  049%=      5-min Rain = 0
KEA1 011410Z 35010KT 01/M09 A3032 RMK A01 T00101087  RH  048%=      5-min Rain = 0
KEA1 011411Z 36009KT 01/M09 A3032 RMK A01 T00101087  RH  048%=      5-min Rain = 0
KEA1 011412Z 00008KT 01/M09 A3032 RMK A01 T00111087  RH  048%=      5-min Rain = 0
KEA1 011413Z 00010KT 01/M09 A3033 RMK A01 T00121087  RH  048%=      5-min Rain = 0
KEA1 011414Z 01009KT 01/M09 A3033 RMK A01 T00121087  RH  048%=      5-min Rain = 0
KEA1 011415Z 01010KT 01/M09 A3033 RMK A01 T00131087  RH  048%=      5-min Rain = 0
KEA1 011416Z 36008KT 01/M09 A3033 RMK A01 T00131086  RH  048%=      5-min Rain = 0
KEA1 011417Z 36008KT 01/M09 A3033 RMK A01 T00131086  RH  048%=      5-min Rain = 0
KEA1 011418Z 36010KT 01/M09 A3033 RMK A01 T00131087  RH  047%=      5-min Rain = 0
KEA1 011419Z 00008KT 01/M09 A3033 RMK A01 T00141086  RH  047%=      5-min Rain = 0
KEA1 011420Z 35008KT 01/M09 A3033 RMK A01 T00141086  RH  047%=      5-min Rain = 0
KEA1 011421Z 36007KT 02/M09 A3033 RMK A01 T00151086  RH  047%=      5-min Rain = 0
KEA1 011422Z 00008KT 02/M09 A3033 RMK A01 T00161085  RH  047%=      5-min Rain = 0
KEA1 011423Z 00009KT 02/M09 A3033 RMK A01 T00161086  RH  047%=      5-min Rain = 0
KEA1 011424Z 00009KT 02/M09 A3033 RMK A01 T00171086  RH  046%=      5-min Rain = 0
KEA1 011425Z 00011KT 02/M09 A3033 RMK A01 T00171086  RH  046%=      5-min Rain = 0
KEA1 011426Z 00010KT 02/M09 A3033 RMK A01 T00181088  RH  045%=      5-min Rain = 0
KEA1 011427Z 01010KT 02/M09 A3033 RMK A01 T00181089  RH  045%=      5-min Rain = 0
KEA1 011428Z 01007KT 02/M09 A3033 RMK A01 T00191088  RH  045%=      5-min Rain = 0
KEA1 011429Z 36008KT 02/M09 A3034 RMK A01 T00201087  RH  045%=      5-min Rain = 0
KEA1 011430Z 01011KT 02/M09 A3034 RMK A01 T00191088  RH  045%=      5-min Rain = 0
KEA1 011431Z 01010KT 02/M09 A3033 RMK A01 T00191092  RH  044%=      5-min Rain = 0
KEA1 011432Z 00009G14KT 02/M09 A3034 RMK A01 T00201091  RH  043%=      5-min Rain = 0
KEA1 011433Z 01009KT 02/M09 A3034 RMK A01 T00201091  RH  044%=      5-min Rain = 0
KEA1 011434Z 01010KT 02/M09 A3034 RMK A01 T00201091  RH  043%=      5-min Rain = 0
KEA1 011435Z 01009KT 02/M09 A3034 RMK A01 T00211091  RH  043%=      5-min Rain = 0
KEA1 011436Z 01010KT 02/M09 A3034 RMK A01 T00221090  RH  043%=      5-min Rain = 0
KEA1 011437Z 01009KT 02/M09 A3034 RMK A01 T00221090  RH  043%=      5-min Rain = 0
KEA1 011438Z 01010KT 02/M09 A3034 RMK A01 T00221090  RH  043%=      5-min Rain = 0
KEA1 011439Z 00009KT 02/M09 A3034 RMK A01 T00231091  RH  043%=      5-min Rain = 0
KEA1 011440Z 01011KT 02/M09 A3034 RMK A01 T00241090  RH  043%=      5-min Rain = 0
KEA1 011441Z 01009KT 03/M09 A3034 RMK A01 T00261090  RH  042%=      5-min Rain = 0
KEA1 011442Z 01010KT 03/M09 A3034 RMK A01 T00261090  RH  042%=      5-min Rain = 0
KEA1 011443Z 01011KT 03/M09 A3034 RMK A01 T00261091  RH  042%=      5-min Rain = 0
KEA1 011444Z 01011KT 03/M09 A3034 RMK A01 T00271092  RH  041%=      5-min Rain = 0
KEA1 011445Z 01012KT 03/M09 A3034 RMK A01 T00271092  RH  041%=      5-min Rain = 0
KEA1 011446Z 01010KT 03/M09 A3034 RMK A01 T00271093  RH  041%=      5-min Rain = 0
KEA1 011447Z 01013KT 03/M09 A3034 RMK A01 T00281092  RH  041%=      5-min Rain = 0
KEA1 011448Z 02012KT 03/M09 A3034 RMK A01 T00281092  RH  041%=      5-min Rain = 0
KEA1 011449Z 00011KT 03/M09 A3034 RMK A01 T00291092  RH  041%=      5-min Rain = 0
KEA1 011450Z 01012KT 03/M09 A3034 RMK A01 T00301092  RH  040%=      5-min Rain = 0
KEA1 011451Z 01012KT 03/M09 A3034 RMK A01 T00311093  RH  040%=      5-min Rain = 0
KEA1 011452Z 02013KT 03/M09 A3034 RMK A01 T00311093  RH  040%=      5-min Rain = 0
KEA1 011453Z 02012KT 03/M09 A3034 RMK A01 T00321093  RH  039%=      5-min Rain = 0
KEA1 011454Z 01012KT 03/M09 A3034 RMK A01 T00321093  RH  039%=      5-min Rain = 0
KEA1 011455Z 02013KT 03/M09 A3034 RMK A01 T00331093  RH  039%=      5-min Rain = 0
KEA1 011456Z 02012KT 03/M09 A3034 RMK A01 T00331093  RH  039%=      5-min Rain = 0
KEA1 011457Z 02015KT 03/M09 A3034 RMK A01 T00341093  RH  039%=      5-min Rain = 0
KEA1 011458Z 01014KT 03/M09 A3034 RMK A01 T00341094  RH  039%=      5-min Rain = 0
KEA1 011459Z 01013KT 03/M09 A3035 RMK A01 T00341094  RH  039%=      5-min Rain = 0
KEA1 011500Z 01013KT 04/M09 A3035 RMK A01 T00361091  RH  039%=      5-min Rain = 0
KEA1 011501Z 01013KT 04/M09 A3035 RMK A01 T00381093  RH  038%=      5-min Rain = 0
KEA1 011502Z 02014KT 04/M09 A3035 RMK A01 T00401093  RH  037%=      5-min Rain = 0
KEA1 011503Z 01015KT 04/M09 A3035 RMK A01 T00401093  RH  037%=      5-min Rain = 0
KEA1 011504Z 01014KT 04/M10 A3035 RMK A01 T00391095  RH  037%=      5-min Rain = 0
KEA1 011505Z 01014KT 04/M10 A3035 RMK A01 T00381095  RH  037%=      5-min Rain = 0
KEA1 011506Z 01013KT 04/M10 A3035 RMK A01 T00371095  RH  037%=      5-min Rain = 0
KEA1 011507Z 02016KT 04/M10 A3035 RMK A01 T00391095  RH  037%=      5-min Rain = 0
KEA1 011508Z 01013KT 04/M10 A3035 RMK A01 T00391096  RH  037%=      5-min Rain = 0
KEA1 011509Z 01012KT 04/M10 A3035 RMK A01 T00381095  RH  037%=      5-min Rain = 0
KEA1 011510Z 01013KT 04/M10 A3035 RMK A01 T00381096  RH  037%=      5-min Rain = 0
KEA1 011511Z 01011KT 04/M10 A3035 RMK A01 T00371097  RH  037%=      5-min Rain = 0
KEA1 011512Z 02012KT 04/M09 A3035 RMK A01 T00391094  RH  037%=      5-min Rain = 0
KEA1 011513Z 01011KT 04/M09 A3036 RMK A01 T00431090  RH  037%=      5-min Rain = 0
KEA1 011514Z 01011KT 05/M09 A3036 RMK A01 T00461089  RH  037%=      5-min Rain = 0
KEA1 011515Z 00012KT 05/M09 A3036 RMK A01 T00471091  RH  036%=      5-min Rain = 0
KEA1 011516Z 01012KT 05/M09 A3036 RMK A01 T00461094  RH  035%=      5-min Rain = 0
KEA1 011517Z 01010KT 05/M09 A3036 RMK A01 T00471092  RH  036%=      5-min Rain = 0
KEA1 011518Z 01012KT 05/M09 A3036 RMK A01 T00491090  RH  036%=      5-min Rain = 0
KEA1 011519Z 01013KT 05/M09 A3036 RMK A01 T00471093  RH  035%=      5-min Rain = 0
KEA1 011520Z 02014KT 05/M09 A3036 RMK A01 T00461094  RH  035%=      5-min Rain = 0
KEA1 011521Z 02014KT 05/M10 A3036 RMK A01 T00461098  RH  034%=      5-min Rain = 0
KEA1 011522Z 03012KT 05/M10 A3036 RMK A01 T00451104  RH  033%=      5-min Rain = 0
KEA1 011523Z 02011KT 04/M10 A3036 RMK A01 T00441103  RH  033%=      5-min Rain = 0
KEA1 011524Z 02012KT 05/M10 A3036 RMK A01 T00451099  RH  034%=      5-min Rain = 0
KEA1 011525Z 01011KT 05/M10 A3036 RMK A01 T00451099  RH  034%=      5-min Rain = 0
KEA1 011526Z 01013KT 05/M10 A3036 RMK A01 T00461098  RH  034%=      5-min Rain = 0
KEA1 011527Z 02013KT 05/M10 A3036 RMK A01 T00481097  RH  034%=      5-min Rain = 0
KEA1 011528Z 02013KT 05/M10 A3036 RMK A01 T00481099  RH  034%=      5-min Rain = 0
KEA1 011529Z 03011KT 05/M11 A3037 RMK A01 T00481109  RH  031%=      5-min Rain = 0
KEA1 011530Z 03012KT 05/M11 A3037 RMK A01 T00491110  RH  031%=      5-min Rain = 0
KEA1 011531Z 03014KT 05/M11 A3036 RMK A01 T00481108  RH  031%=      5-min Rain = 0
KEA1 011532Z 02013KT 05/M11 A3036 RMK A01 T00481105  RH  032%=      5-min Rain = 0
KEA1 011533Z 02012KT 05/M11 A3036 RMK A01 T00501105  RH  032%=      5-min Rain = 0
KEA1 011534Z 02011KT 05/M11 A3036 RMK A01 T00511107  RH  031%=      5-min Rain = 0
KEA1 011535Z 02011KT 05/M11 A3037 RMK A01 T00511110  RH  030%=      5-min Rain = 0
KEA1 011536Z 01012KT 05/M11 A3036 RMK A01 T00541107  RH  030%=      5-min Rain = 0
KEA1 011537Z 02013KT 06/M11 A3037 RMK A01 T00551109  RH  030%=      5-min Rain = 0
KEA1 011538Z 03011KT 05/M11 A3037 RMK A01 T00531113  RH  029%=      5-min Rain = 0
KEA1 011539Z 04010KT 05/M12 A3037 RMK A01 T00531116  RH  028%=      5-min Rain = 0
KEA1 011540Z 02010KT 05/M11 A3037 RMK A01 T00531113  RH  029%=      5-min Rain = 0
KEA1 011541Z 02010KT 05/M11 A3037 RMK A01 T00541105  RH  031%=      5-min Rain = 0
KEA1 011542Z 03014KT 06/M10 A3037 RMK A01 T00571103  RH  030%=      5-min Rain = 0
KEA1 011543Z 02012KT 06/M11 A3037 RMK A01 T00581112  RH  028%=      5-min Rain = 0
KEA1 011544Z 03012KT 06/M12 A3037 RMK A01 T00551116  RH  028%=      5-min Rain = 0
KEA1 011545Z 01011KT 05/M11 A3037 RMK A01 T00521114  RH  029%=      5-min Rain = 0
KEA1 011546Z 02012KT 05/M11 A3037 RMK A01 T00531110  RH  030%=      5-min Rain = 0
KEA1 011547Z 02011KT 06/M11 A3037 RMK A01 T00561108  RH  030%=      5-min Rain = 0
KEA1 011548Z 02011KT 06/M11 A3037 RMK A01 T00591108  RH  029%=      5-min Rain = 0
KEA1 011549Z 03012KT 06/M11 A3037 RMK A01 T00581110  RH  029%=      5-min Rain = 0
KEA1 011550Z 02011KT 06/M11 A3037 RMK A01 T00571109  RH  029%=      5-min Rain = 0
KEA1 011551Z 02012KT 06/M11 A3037 RMK A01 T00591107  RH  029%=      5-min Rain = 0
KEA1 011552Z 04011KT 06/M11 A3037 RMK A01 T00581112  RH  028%=      5-min Rain = 0
KEA1 011553Z 03009KT 06/M11 A3037 RMK A01 T00601112  RH  028%=      5-min Rain = 0
KEA1 011554Z 02014KT 07/M11 A3037 RMK A01 T00661110  RH  027%=      5-min Rain = 0
KEA1 011555Z 03010KT 07/M12 A3037 RMK A01 T00651115  RH  026%=      5-min Rain = 0
KEA1 011556Z 04013KT 06/M12 A3037 RMK A01 T00631116  RH  026%=      5-min Rain = 0
KEA1 011557Z 03010KT 06/M12 A3037 RMK A01 T00611115  RH  027%=      5-min Rain = 0
KEA1 011558Z 04011KT 07/M11 A3037 RMK A01 T00651110  RH  027%=      5-min Rain = 0
KEA1 011559Z 04012KT 07/M11 A3037 RMK A01 T00661113  RH  027%=      5-min Rain = 0
KEA1 011600Z 04012KT 06/M12 A3037 RMK A01 T00641117  RH  026%=      5-min Rain = 0
KEA1 011601Z 04011KT 06/M12 A3037 RMK A01 T00621115  RH  027%=      5-min Rain = 0
KEA1 011602Z 03012KT 07/M11 A3037 RMK A01 T00651110  RH  027%=      5-min Rain = 0
KEA1 011603Z 04013KT 06/M11 A3037 RMK A01 T00641112  RH  027%=      5-min Rain = 0
KEA1 011604Z 04013KT 06/M11 A3037 RMK A01 T00631114  RH  027%=      5-min Rain = 0
KEA1 011605Z 03012KT 06/M12 A3037 RMK A01 T00631115  RH  027%=      5-min Rain = 0
KEA1 011606Z 05012KT 06/M11 A3037 RMK A01 T00611114  RH  027%=      5-min Rain = 0
KEA1 011607Z 05013KT 06/M11 A3037 RMK A01 T00641114  RH  027%=      5-min Rain = 0
KEA1 011608Z 04012KT 07/M12 A3037 RMK A01 T00651115  RH  026%=      5-min Rain = 0
KEA1 011609Z 03012KT 06/M12 A3037 RMK A01 T00621115  RH  027%=      5-min Rain = 0
KEA1 011610Z 03013KT 07/M11 A3037 RMK A01 T00651111  RH  027%=      5-min Rain = 0
KEA1 011611Z 04014KT 07/M11 A3037 RMK A01 T00681111  RH  026%=      5-min Rain = 0
KEA1 011612Z 04016KT 07/M11 A3037 RMK A01 T00681113  RH  026%=      5-min Rain = 0
KEA1 011613Z 05012KT 07/M12 A3037 RMK A01 T00651116  RH  026%=      5-min Rain = 0
KEA1 011614Z 04013KT 06/M11 A3037 RMK A01 T00641113  RH  027%=      5-min Rain = 0
KEA1 011615Z 03014KT 07/M11 A3037 RMK A01 T00661114  RH  026%=      5-min Rain = 0
KEA1 011616Z 03012KT 07/M11 A3037 RMK A01 T00681113  RH  026%=      5-min Rain = 0
KEA1 011617Z 03011KT 07/M11 A3037 RMK A01 T00691111  RH  026%=      5-min Rain = 0
KEA1 011618Z 04011KT 07/M11 A3037 RMK A01 T00711113  RH  026%=      5-min Rain = 0
KEA1 011619Z 04014KT 07/M11 A3037 RMK A01 T00711110  RH  026%=      5-min Rain = 0
KEA1 011620Z 04012KT 07/M11 A3037 RMK A01 T00701114  RH  026%=      5-min Rain = 0
KEA1 011621Z 03013KT 07/M12 A3037 RMK A01 T00661116  RH  026%=      5-min Rain = 0
KEA1 011622Z 04013KT 07/M12 A3037 RMK A01 T00651115  RH  026%=      5-min Rain = 0
KEA1 011623Z 03012KT 06/M12 A3038 RMK A01 T00641115  RH  026%=      5-min Rain = 0
KEA1 011624Z 02013KT 07/M11 A3038 RMK A01 T00691111  RH  026%=      5-min Rain = 0
KEA1 011625Z 02013KT 07/M11 A3038 RMK A01 T00681114  RH  026%=      5-min Rain = 0
KEA1 011626Z 03014KT 07/M11 A3038 RMK A01 T00691113  RH  026%=      5-min Rain = 0
KEA1 011627Z 03013KT 07/M11 A3038 RMK A01 T00701112  RH  026%=      5-min Rain = 0
KEA1 011628Z 03013KT 07/M12 A3038 RMK A01 T00661117  RH  026%=      5-min Rain = 0
KEA1 011629Z 04014KT 07/M11 A3038 RMK A01 T00661113  RH  027%=      5-min Rain = 0
KEA1 011630Z 05011KT 07/M11 A3038 RMK A01 T00661114  RH  026%=      5-min Rain = 0
KEA1 011631Z 05014KT 07/M11 A3038 RMK A01 T00671114  RH  026%=      5-min Rain = 0
KEA1 011632Z 04014KT 07/M12 A3038 RMK A01 T00681115  RH  026%=      5-min Rain = 0
KEA1 011633Z 04012KT 07/M12 A3038 RMK A01 T00681119  RH  025%=      5-min Rain = 0
KEA1 011634Z 04012KT 07/M12 A3038 RMK A01 T00691117  RH  025%=      5-min Rain = 0
KEA1 011635Z 04013KT 07/M12 A3038 RMK A01 T00681115  RH  026%=      5-min Rain = 0
KEA1 011636Z 04014KT 07/M12 A3038 RMK A01 T00681115  RH  026%=      5-min Rain = 0
KEA1 011637Z 05013KT 07/M12 A3038 RMK A01 T00691115  RH  026%=      5-min Rain = 0
KEA1 011638Z 05012KT 07/M12 A3038 RMK A01 T00691118  RH  025%=      5-min Rain = 0
KEA1 011639Z 04012KT 07/M12 A3038 RMK A01 T00671119  RH  025%=      5-min Rain = 0
KEA1 011640Z 03010KT 06/M12 A3038 RMK A01 T00641118  RH  026%=      5-min Rain = 0
KEA1 011641Z 04012KT 06/M12 A3038 RMK A01 T00631115  RH  027%=      5-min Rain = 0
KEA1 011642Z 05015KT 07/M11 A3038 RMK A01 T00681113  RH  026%=      5-min Rain = 0
KEA1 011643Z 04014KT 07/M12 A3038 RMK A01 T00691119  RH  025%=      5-min Rain = 0
KEA1 011644Z 04011KT 07/M12 A3038 RMK A01 T00681121  RH  025%=      5-min Rain = 0
KEA1 011645Z 05011KT 07/M12 A3038 RMK A01 T00661121  RH  025%=      5-min Rain = 0
KEA1 011646Z 04009KT 07/M12 A3039 RMK A01 T00671120  RH  025%=      5-min Rain = 0
KEA1 011647Z 04010KT 07/M11 A3039 RMK A01 T00741113  RH  025%=      5-min Rain = 0
KEA1 011648Z 05011KT 08/M11 A3039 RMK A01 T00781114  RH  024%=      5-min Rain = 0
KEA1 011649Z 05011KT 08/M12 A3039 RMK A01 T00751118  RH  024%=      5-min Rain = 0
KEA1 011650Z 05011KT 07/M12 A3039 RMK A01 T00731119  RH  024%=      5-min Rain = 0
KEA1 011651Z 03014KT 07/M12 A3039 RMK A01 T00741117  RH  024%=      5-min Rain = 0
KEA1 011652Z 04013KT 08/M12 A3039 RMK A01 T00751117  RH  024%=      5-min Rain = 0
KEA1 011653Z 05014KT 08/M12 A3039 RMK A01 T00751117  RH  024%=      5-min Rain = 0
KEA1 011654Z 04012KT 07/M12 A3039 RMK A01 T00711120  RH  024%=      5-min Rain = 0
KEA1 011655Z 04009KT 07/M12 A3039 RMK A01 T00691119  RH  025%=      5-min Rain = 0
KEA1 011656Z 04009KT 07/M12 A3039 RMK A01 T00691117  RH  025%=      5-min Rain = 0
KEA1 011657Z 04015KT 07/M11 A3039 RMK A01 T00741114  RH  025%=      5-min Rain = 0
KEA1 011658Z 04013KT 07/M12 A3039 RMK A01 T00741120  RH  024%=      5-min Rain = 0
KEA1 011659Z 03011KT 07/M12 A3039 RMK A01 T00721121  RH  024%=      5-min Rain = 0
KEA1 011700Z 02011KT 07/M12 A3039 RMK A01 T00711120  RH  024%=      5-min Rain = 0
KEA1 011701Z 04011KT 07/M12 A3039 RMK A01 T00731118  RH  024%=      5-min Rain = 0
KEA1 011702Z 07013KT 08/M12 A3039 RMK A01 T00751118  RH  024%=      5-min Rain = 0
KEA1 011703Z 06013KT 07/M12 A3039 RMK A01 T00711123  RH  024%=      5-min Rain = 0
KEA1 011704Z 05014KT 07/M12 A3039 RMK A01 T00741121  RH  024%=      5-min Rain = 0
KEA1 011705Z 04015KT 07/M12 A3039 RMK A01 T00731124  RH  023%=      5-min Rain = 0
KEA1 011706Z 03012KT 07/M12 A3039 RMK A01 T00691124  RH  024%=      5-min Rain = 0
KEA1 011707Z 02010KT 07/M12 A3039 RMK A01 T00691122  RH  024%=      5-min Rain = 0
KEA1 011708Z 04010G15KT 07/M12 A3039 RMK A01 T00701121  RH  024%=      5-min Rain = 0
KEA1 011709Z 04013KT 07/M12 A304 RMK A01 T00701123  RH  024%=      5-min Rain = 0
KEA1 011710Z 04012KT 07/M13 A304 RMK A01 T00681125  RH  024%=      5-min Rain = 0
KEA1 011711Z 04012KT 07/M12 A3039 RMK A01 T00681123  RH  024%=      5-min Rain = 0
KEA1 011712Z 05014KT 07/M12 A3039 RMK A01 T00721121  RH  024%=      5-min Rain = 0
KEA1 011713Z 06014KT 07/M12 A304 RMK A01 T00731123  RH  023%=      5-min Rain = 0
KEA1 011714Z 04011KT 07/M12 A304 RMK A01 T00731123  RH  023%=      5-min Rain = 0
KEA1 011715Z 04010KT 08/M12 A304 RMK A01 T00781119  RH  023%=      5-min Rain = 0
KEA1 011716Z 04011KT 08/M12 A304 RMK A01 T00791120  RH  023%=      5-min Rain = 0
KEA1 011717Z 04011KT 07/M12 A3039 RMK A01 T00741123  RH  023%=      5-min Rain = 0
KEA1 011718Z 05012KT 07/M12 A3039 RMK A01 T00711121  RH  024%=      5-min Rain = 0
KEA1 011719Z 05014KT 08/M12 A3039 RMK A01 T00751118  RH  024%=      5-min Rain = 0
KEA1 011720Z 04012KT 08/M12 A304 RMK A01 T00761120  RH  023%=      5-min Rain = 0
KEA1 011721Z 03010KT 07/M12 A3039 RMK A01 T00741124  RH  023%=      5-min Rain = 0
KEA1 011722Z 03010KT 07/M13 A304 RMK A01 T00701125  RH  023%=      5-min Rain = 0
KEA1 011723Z 03012KT 07/M12 A304 RMK A01 T00731121  RH  024%=      5-min Rain = 0
KEA1 011724Z 03011KT 07/M12 A304 RMK A01 T00741123  RH  023%=      5-min Rain = 0
KEA1 011725Z 02012KT 07/M12 A304 RMK A01 T00741123  RH  023%=      5-min Rain = 0
KEA1 011726Z 04016KT 08/M12 A3039 RMK A01 T00751122  RH  023%=      5-min Rain = 0
KEA1 011727Z 05014KT 07/M12 A304 RMK A01 T00741123  RH  023%=      5-min Rain = 0
KEA1 011728Z 06010KT 07/M12 A304 RMK A01 T00741123  RH  023%=      5-min Rain = 0
KEA1 011729Z 06012KT 07/M12 A304 RMK A01 T00731124  RH  023%=      5-min Rain = 0
KEA1 011730Z 05011KT 07/M12 A304 RMK A01 T00741122  RH  023%=      5-min Rain = 0
KEA1 011731Z 02009KT 08/M12 A304 RMK A01 T00761117  RH  024%=      5-min Rain = 0
KEA1 011732Z 04010KT 08/M12 A304 RMK A01 T00781115  RH  024%=      5-min Rain = 0
KEA1 011733Z 04010KT 08/M12 A304 RMK A01 T00761118  RH  024%=      5-min Rain = 0
KEA1 011734Z 04011KT 08/M12 A304 RMK A01 T00751118  RH  024%=      5-min Rain = 0
KEA1 011735Z 02012KT 08/M12 A304 RMK A01 T00791117  RH  023%=      5-min Rain = 0
KEA1 011736Z 02010KT 08/M12 A304 RMK A01 T00791120  RH  023%=      5-min Rain = 0
KEA1 011737Z 03012KT 08/M12 A304 RMK A01 T00811119  RH  023%=      5-min Rain = 0
KEA1 011738Z 03011KT 08/M12 A304 RMK A01 T00801121  RH  023%=      5-min Rain = 0
KEA1 011739Z 03011KT 08/M12 A304 RMK A01 T00791122  RH  023%=      5-min Rain = 0
KEA1 011740Z 02009KT 08/M12 A304 RMK A01 T00771122  RH  023%=      5-min Rain = 0
KEA1 011741Z 01011KT 08/M11 A304 RMK A01 T00791114  RH  024%=      5-min Rain = 0
KEA1 011742Z 01010KT 08/M11 A304 RMK A01 T00821113  RH  024%=      5-min Rain = 0
KEA1 011743Z 03008G13KT 08/M11 A304 RMK A01 T00811113  RH  024%=      5-min Rain = 0
KEA1 011744Z 03012KT 08/M11 A304 RMK A01 T00831113  RH  024%=      5-min Rain = 0
KEA1 011745Z 04009KT 08/M12 A304 RMK A01 T00831115  RH  023%=      5-min Rain = 0
KEA1 011746Z 04010KT 09/M11 A304 RMK A01 T00861113  RH  023%=      5-min Rain = 0
KEA1 011747Z 04012KT 09/M12 A304 RMK A01 T00881118  RH  022%=      5-min Rain = 0
KEA1 011748Z 02011KT 09/M12 A304 RMK A01 T00861120  RH  022%=      5-min Rain = 0
KEA1 011749Z 02011KT 09/M12 A304 RMK A01 T00871116  RH  023%=      5-min Rain = 0
KEA1 011750Z 03010KT 09/M12 A304 RMK A01 T00901116  RH  022%=      5-min Rain = 0
KEA1 011751Z 06010KT 09/M12 A304 RMK A01 T00901116  RH  022%=      5-min Rain = 0
KEA1 011752Z 04010KT 09/M12 A304 RMK A01 T00881119  RH  022%=      5-min Rain = 0
KEA1 011753Z 04011KT 09/M12 A304 RMK A01 T00861119  RH  022%=      5-min Rain = 0
KEA1 011754Z 05011KT 08/M12 A304 RMK A01 T00841122  RH  022%=      5-min Rain = 0
KEA1 011755Z 03012KT 08/M12 A304 RMK A01 T00831123  RH  022%=      5-min Rain = 0
KEA1 011756Z 03016KT 08/M12 A304 RMK A01 T00831117  RH  023%=      5-min Rain = 0
KEA1 011757Z 02014KT 08/M12 A304 RMK A01 T00831115  RH  023%=      5-min Rain = 0
KEA1 011758Z 02013KT 08/M11 A304 RMK A01 T00841114  RH  023%=      5-min Rain = 0
KEA1 011759Z 02013KT 08/M11 A304 RMK A01 T00841114  RH  023%=      5-min Rain = 0
KEA1 011800Z 02009KT 08/M12 A304 RMK A01 T00841115  RH  023%=      5-min Rain = 0
KEA1 011801Z 02006KT 08/M12 A304 RMK A01 T00831115  RH  023%=      5-min Rain = 0
KEA1 011802Z 03010G15KT 08/M11 A304 RMK A01 T00841113  RH  024%=      5-min Rain = 0
KEA1 011803Z 03014KT 09/M11 A304 RMK A01 T00871112  RH  023%=      5-min Rain = 0
KEA1 011804Z 03015KT 09/M11 A304 RMK A01 T00881114  RH  023%=      5-min Rain = 0
KEA1 011805Z 03013KT 09/M12 A304 RMK A01 T00851115  RH  023%=      5-min Rain = 0
KEA1 011806Z 02013KT 08/M11 A304 RMK A01 T00841112  RH  024%=      5-min Rain = 0
KEA1 011807Z 04008KT 09/M11 A304 RMK A01 T00851113  RH  023%=      5-min Rain = 0
KEA1 011808Z 03010KT 09/M11 A304 RMK A01 T00851112  RH  023%=      5-min Rain = 0
KEA1 011809Z 02007KT 08/M11 A304 RMK A01 T00811113  RH  024%=      5-min Rain = 0
KEA1 011810Z 04006KT 08/M11 A304 RMK A01 T00811111  RH  024%=      5-min Rain = 0
KEA1 011811Z 04014KT 08/M12 A304 RMK A01 T00821115  RH  023%=      5-min Rain = 0
KEA1 011812Z 03012KT 08/M12 A304 RMK A01 T00841123  RH  022%=      5-min Rain = 0
KEA1 011813Z 03010KT 09/M12 A304 RMK A01 T00861123  RH  021%=      5-min Rain = 0
KEA1 011814Z 04010KT 09/M12 A304 RMK A01 T00921117  RH  022%=      5-min Rain = 0
KEA1 011815Z 05008KT 09/M12 A304 RMK A01 T00911122  RH  021%=      5-min Rain = 0
KEA1 011816Z 04010KT 09/M13 A304 RMK A01 T00891125  RH  021%=      5-min Rain = 0
KEA1 011817Z 06012KT 10/M12 A304 RMK A01 T00981121  RH  020%=      5-min Rain = 0
KEA1 011818Z 05016KT 10/M13 A304 RMK A01 T00961131  RH  019%=      5-min Rain = 0
KEA1 011819Z 06013KT 09/M13 A304 RMK A01 T00911134  RH  019%=      5-min Rain = 0
KEA1 011820Z 05013KT 09/M13 A304 RMK A01 T00891132  RH  020%=      5-min Rain = 0
KEA1 011821Z 04008KT 09/M13 A304 RMK A01 T00901126  RH  020%=      5-min Rain = 0
KEA1 011822Z 05007KT 09/M13 A304 RMK A01 T00871127  RH  021%=      5-min Rain = 0
KEA1 011823Z 06009KT 09/M13 A304 RMK A01 T00871125  RH  021%=      5-min Rain = 0
KEA1 011824Z 04012KT 09/M12 A3039 RMK A01 T00871124  RH  021%=      5-min Rain = 0
KEA1 011825Z 05012KT 09/M12 A3039 RMK A01 T00911119  RH  021%=      5-min Rain = 0
KEA1 011826Z 04015KT 10/M12 A3039 RMK A01 T00951121  RH  020%=      5-min Rain = 0
KEA1 011827Z 03010KT 09/M13 A3039 RMK A01 T00891127  RH  020%=      5-min Rain = 0
KEA1 011828Z 06007KT 09/M13 A304 RMK A01 T00861127  RH  021%=      5-min Rain = 0
KEA1 011829Z 06008KT 09/M13 A3039 RMK A01 T00851126  RH  021%=      5-min Rain = 0
KEA1 011830Z 05011KT 09/M13 A3039 RMK A01 T00851128  RH  021%=      5-min Rain = 0
KEA1 011831Z 04012KT 09/M14 A3039 RMK A01 T00861137  RH  019%=      5-min Rain = 0
KEA1 011832Z 05012KT 09/M15 A3039 RMK A01 T00871145  RH  018%=      5-min Rain = 0
KEA1 011833Z 06016KT 09/M14 A3039 RMK A01 T00871135  RH  019%=      5-min Rain = 0
KEA1 011834Z 05012KT 09/M13 A3039 RMK A01 T00871132  RH  020%=      5-min Rain = 0
KEA1 011835Z 06012KT 09/M13 A304 RMK A01 T00861130  RH  020%=      5-min Rain = 0
KEA1 011836Z 04009KT 09/M13 A304 RMK A01 T00861127  RH  021%=      5-min Rain = 0
KEA1 011837Z 06011KT 09/M12 A304 RMK A01 T00881123  RH  021%=      5-min Rain = 0
KEA1 011838Z 05008KT 09/M12 A304 RMK A01 T00881124  RH  021%=      5-min Rain = 0
KEA1 011839Z 04009KT 09/M12 A3039 RMK A01 T00851123  RH  021%=      5-min Rain = 0
KEA1 011840Z 06009KT 09/M12 A3039 RMK A01 T00851124  RH  021%=      5-min Rain = 0
KEA1 011841Z 06010KT 08/M13 A3039 RMK A01 T00841126  RH  021%=      5-min Rain = 0
KEA1 011842Z 05009KT 08/M13 A3039 RMK A01 T00841126  RH  021%=      5-min Rain = 0
KEA1 011843Z 04009KT 09/M12 A3039 RMK A01 T00881122  RH  021%=      5-min Rain = 0
KEA1 011844Z 05008KT 09/M12 A3039 RMK A01 T00921122  RH  021%=      5-min Rain = 0
KEA1 011845Z 07011G16KT 09/M13 A3039 RMK A01 T00911126  RH  020%=      5-min Rain = 0
KEA1 011846Z 05015G21KT 09/M13 A3039 RMK A01 T00881133  RH  019%=      5-min Rain = 0
KEA1 011847Z 04014KT 09/M14 A3039 RMK A01 T00861135  RH  019%=      5-min Rain = 0
KEA1 011848Z 03009KT 08/M14 A3039 RMK A01 T00811136  RH  020%=      5-min Rain = 0
KEA1 011849Z 05011KT 08/M13 A3039 RMK A01 T00811134  RH  020%=      5-min Rain = 0
KEA1 011850Z 06009KT 08/M13 A3039 RMK A01 T00811133  RH  020%=      5-min Rain = 0
KEA1 011851Z 05010KT 08/M13 A3039 RMK A01 T00801133  RH  021%=      5-min Rain = 0
KEA1 011852Z 03013KT 08/M13 A3039 RMK A01 T00821132  RH  020%=      5-min Rain = 0
KEA1 011853Z 03007KT 08/M13 A3039 RMK A01 T00821134  RH  020%=      5-min Rain = 0
KEA1 011854Z 03013KT 08/M13 A3039 RMK A01 T00821131  RH  020%=      5-min Rain = 0
KEA1 011855Z 02010KT 08/M13 A3039 RMK A01 T00811129  RH  021%=      5-min Rain = 0
KEA1 011856Z 01007KT 08/M13 A3039 RMK A01 T00781130  RH  021%=      5-min Rain = 0
KEA1 011857Z 01007KT 08/M13 A3039 RMK A01 T00781128  RH  022%=      5-min Rain = 0
KEA1 011858Z 01009KT 08/M12 A3039 RMK A01 T00811124  RH  022%=      5-min Rain = 0
KEA1 011859Z 03010KT 08/M12 A3039 RMK A01 T00831124  RH  022%=      5-min Rain = 0
KEA1 011900Z 01009KT 08/M12 A3039 RMK A01 T00841123  RH  022%=      5-min Rain = 0
KEA1 011901Z 36010KT 09/M12 A3039 RMK A01 T00861124  RH  021%=      5-min Rain = 0
KEA1 011902Z 01009KT 09/M12 A3039 RMK A01 T00871123  RH  021%=      5-min Rain = 0
KEA1 011903Z 04008KT 09/M12 A3039 RMK A01 T00861123  RH  021%=      5-min Rain = 0
KEA1 011904Z 05009KT 09/M12 A3039 RMK A01 T00881122  RH  021%=      5-min Rain = 0
KEA1 011905Z 07010KT 09/M13 A3039 RMK A01 T00861126  RH  021%=      5-min Rain = 0
KEA1 011906Z 07006KT 09/M13 A3039 RMK A01 T00851125  RH  021%=      5-min Rain = 0
KEA1 011907Z 05004KT 08/M13 A3039 RMK A01 T00811125  RH  022%=      5-min Rain = 0
KEA1 011908Z 05005KT 08/M13 A3039 RMK A01 T00811125  RH  022%=      5-min Rain = 0
KEA1 011909Z 03004KT 08/M13 A3039 RMK A01 T00811126  RH  022%=      5-min Rain = 0
KEA1 011910Z 03006KT 08/M13 A3039 RMK A01 T00821125  RH  022%=      5-min Rain = 0
KEA1 011911Z 04011KT 09/M13 A3039 RMK A01 T00851125  RH  021%=      5-min Rain = 0
KEA1 011912Z 04011KT 09/M13 A3039 RMK A01 T00871127  RH  021%=      5-min Rain = 0
KEA1 011913Z 06010KT 09/M13 A3039 RMK A01 T00881127  RH  020%=      5-min Rain = 0
KEA1 011914Z 05012G17KT 09/M13 A3039 RMK A01 T00891126  RH  020%=      5-min Rain = 0
KEA1 011915Z 05014KT 09/M13 A3038 RMK A01 T00901126  RH  020%=      5-min Rain = 0
KEA1 011916Z 06011KT 09/M13 A3038 RMK A01 T00931125  RH  020%=      5-min Rain = 0
KEA1 011917Z 04012KT 09/M13 A3038 RMK A01 T00941126  RH  020%=      5-min Rain = 0
KEA1 011918Z 03011KT 09/M13 A3038 RMK A01 T00931128  RH  020%=      5-min Rain = 0
KEA1 011919Z 05007KT 09/M13 A3038 RMK A01 T00901130  RH  020%=      5-min Rain = 0
KEA1 011920Z 00003KT 09/M13 A3038 RMK A01 T00881129  RH  020%=      5-min Rain = 0
KEA1 011921Z 02005KT 09/M13 A3038 RMK A01 T00891126  RH  020%=      5-min Rain = 0
KEA1 011922Z 01006KT 09/M13 A3038 RMK A01 T00911127  RH  020%=      5-min Rain = 0
KEA1 011923Z 04005KT 09/M13 A3038 RMK A01 T00901130  RH  020%=      5-min Rain = 0
KEA1 011924Z 01010KT 09/M13 A3038 RMK A01 T00911127  RH  020%=      5-min Rain = 0
KEA1 011925Z 01009KT 10/M13 A3038 RMK A01 T00951127  RH  019%=      5-min Rain = 0
KEA1 011926Z 01008G17KT 09/M13 A3038 RMK A01 T00931130  RH  019%=      5-min Rain = 0
KEA1 011927Z 01014KT 09/M13 A3038 RMK A01 T00931127  RH  020%=      5-min Rain = 0
KEA1 011928Z 02009KT 09/M13 A3038 RMK A01 T00921127  RH  020%=      5-min Rain = 0
KEA1 011929Z 00011KT 09/M13 A3038 RMK A01 T00921125  RH  020%=      5-min Rain = 0
KEA1 011930Z 01007KT 09/M13 A3038 RMK A01 T00911129  RH  020%=      5-min Rain = 0
KEA1 011931Z 01011KT 09/M13 A3038 RMK A01 T00881130  RH  020%=      5-min Rain = 0
KEA1 011932Z 00011KT 09/M13 A3038 RMK A01 T00891125  RH  021%=      5-min Rain = 0
KEA1 011933Z 36011KT 09/M12 A3038 RMK A01 T00911124  RH  021%=      5-min Rain = 0
KEA1 011934Z 01009G14KT 09/M13 A3038 RMK A01 T00911125  RH  020%=      5-min Rain = 0
KEA1 011935Z 02013KT 09/M13 A3038 RMK A01 T00931125  RH  020%=      5-min Rain = 0
KEA1 011936Z 02011KT 09/M13 A3038 RMK A01 T00921127  RH  020%=      5-min Rain = 0
KEA1 011937Z 01009KT 09/M13 A3038 RMK A01 T00911125  RH  020%=      5-min Rain = 0
KEA1 011938Z 02007KT 10/M12 A3038 RMK A01 T00951122  RH  020%=      5-min Rain = 0
KEA1 011939Z 35005KT 10/M12 A3038 RMK A01 T00971124  RH  020%=      5-min Rain = 0
KEA1 011940Z 02004KT 10/M13 A3038 RMK A01 T00971125  RH  020%=      5-min Rain = 0
KEA1 011941Z 06005KT 10/M13 A3038 RMK A01 T00961127  RH  019%=      5-min Rain = 0
KEA1 011942Z 08006KT 10/M13 A3038 RMK A01 T00961128  RH  019%=      5-min Rain = 0
KEA1 011943Z 06003KT 09/M13 A3038 RMK A01 T00901133  RH  019%=      5-min Rain = 0
KEA1 011944Z 03005KT 09/M13 A3037 RMK A01 T00861132  RH  020%=      5-min Rain = 0
KEA1 011945Z 03008KT 09/M13 A3037 RMK A01 T00911126  RH  020%=      5-min Rain = 0
KEA1 011946Z 03009KT 09/M13 A3037 RMK A01 T00941127  RH  020%=      5-min Rain = 0
KEA1 011947Z 01010KT 10/M13 A3037 RMK A01 T00971126  RH  019%=      5-min Rain = 0
KEA1 011948Z 02013KT 10/M13 A3037 RMK A01 T01001127  RH  019%=      5-min Rain = 0
KEA1 011949Z 01013KT 10/M13 A3037 RMK A01 T00971132  RH  018%=      5-min Rain = 0
KEA1 011950Z 01010KT 09/M13 A3037 RMK A01 T00941132  RH  019%=      5-min Rain = 0
KEA1 011951Z 36009KT 09/M13 A3037 RMK A01 T00931131  RH  019%=      5-min Rain = 0
KEA1 011952Z 02012KT 09/M13 A3037 RMK A01 T00921130  RH  019%=      5-min Rain = 0
KEA1 011953Z 02010KT 09/M13 A3037 RMK A01 T00931129  RH  019%=      5-min Rain = 0
KEA1 011954Z 01007KT 09/M13 A3037 RMK A01 T00911131  RH  019%=      5-min Rain = 0
KEA1 011955Z 01007KT 09/M13 A3037 RMK A01 T00901129  RH  020%=      5-min Rain = 0
KEA1 011956Z 03008KT 09/M13 A3037 RMK A01 T00901129  RH  020%=      5-min Rain = 0
KEA1 011957Z 02008KT 09/M13 A3037 RMK A01 T00911129  RH  020%=      5-min Rain = 0
KEA1 011958Z 00007KT 09/M13 A3037 RMK A01 T00911131  RH  019%=      5-min Rain = 0
KEA1 011959Z 01004KT 09/M13 A3037 RMK A01 T00911129  RH  020%=      5-min Rain = 0
KEA1 012000Z 01010KT 10/M13 A3037 RMK A01 T00951127  RH  019%=      5-min Rain = 0
KEA1 012001Z 01014KT 10/M13 A3037 RMK A01 T00951131  RH  019%=      5-min Rain = 0
KEA1 012002Z 02012KT 10/M13 A3037 RMK A01 T00951131  RH  019%=      5-min Rain = 0
KEA1 012003Z 02011KT 10/M13 A3037 RMK A01 T00961133  RH  019%=      5-min Rain = 0
KEA1 012004Z 02008KT 09/M13 A3037 RMK A01 T00941134  RH  018%=      5-min Rain = 0
KEA1 012005Z 02008KT 09/M14 A3037 RMK A01 T00921135  RH  019%=      5-min Rain = 0
KEA1 012006Z 01007KT 09/M13 A3037 RMK A01 T00921134  RH  019%=      5-min Rain = 0
KEA1 012007Z 36005G10KT 09/M13 A3037 RMK A01 T00921134  RH  019%=      5-min Rain = 0
KEA1 012008Z 35006KT 09/M13 A3037 RMK A01 T00931133  RH  019%=      5-min Rain = 0
KEA1 012009Z 35010KT 10/M13 A3037 RMK A01 T00961130  RH  019%=      5-min Rain = 0
KEA1 012010Z 33005KT 10/M13 A3037 RMK A01 T00961131  RH  019%=      5-min Rain = 0
KEA1 012011Z 35006KT 10/M13 A3036 RMK A01 T00961133  RH  018%=      5-min Rain = 0
KEA1 012012Z 01011KT 10/M13 A3036 RMK A01 T00951133  RH  019%=      5-min Rain = 0
KEA1 012013Z 03014KT 10/M13 A3036 RMK A01 T00971132  RH  018%=      5-min Rain = 0
KEA1 012014Z 04010G15KT 10/M13 A3036 RMK A01 T00971134  RH  018%=      5-min Rain = 0
KEA1 012015Z 04010KT 10/M13 A3036 RMK A01 T00951134  RH  018%=      5-min Rain = 0
KEA1 012016Z 03014KT 09/M13 A3036 RMK A01 T00941134  RH  019%=      5-min Rain = 0
KEA1 012017Z 02014KT 10/M13 A3036 RMK A01 T00971132  RH  018%=      5-min Rain = 0
KEA1 012018Z 03013KT 10/M14 A3036 RMK A01 T00961135  RH  018%=      5-min Rain = 0
KEA1 012019Z 00012KT 09/M14 A3036 RMK A01 T00941135  RH  018%=      5-min Rain = 0
KEA1 012020Z 36009KT 09/M14 A3036 RMK A01 T00941135  RH  018%=      5-min Rain = 0
KEA1 012021Z 00007G12KT 09/M14 A3036 RMK A01 T00921135  RH  019%=      5-min Rain = 0
KEA1 012022Z 01009KT 09/M13 A3036 RMK A01 T00941133  RH  019%=      5-min Rain = 0
KEA1 012023Z 02008G13KT 10/M13 A3036 RMK A01 T00951133  RH  019%=      5-min Rain = 0
KEA1 012024Z 02009KT 10/M13 A3036 RMK A01 T00951133  RH  018%=      5-min Rain = 0
KEA1 012025Z 01010G17KT 09/M13 A3036 RMK A01 T00941133  RH  019%=      5-min Rain = 0
KEA1 012026Z 01010KT 10/M13 A3036 RMK A01 T00961131  RH  019%=      5-min Rain = 0
KEA1 012027Z 02010KT 10/M13 A3036 RMK A01 T00971130  RH  019%=      5-min Rain = 0
KEA1 012028Z 03011KT 10/M13 A3036 RMK A01 T01001131  RH  018%=      5-min Rain = 0
KEA1 012029Z 02009KT 10/M14 A3036 RMK A01 T00961135  RH  018%=      5-min Rain = 0
KEA1 012030Z 35004KT 09/M14 A3036 RMK A01 T00921136  RH  018%=      5-min Rain = 0
KEA1 012031Z 05007KT 09/M14 A3036 RMK A01 T00911136  RH  019%=      5-min Rain = 0
KEA1 012032Z 05007KT 09/M14 A3036 RMK A01 T00931135  RH  019%=      5-min Rain = 0
KEA1 012033Z 06005KT 09/M14 A3036 RMK A01 T00941135  RH  018%=      5-min Rain = 0
KEA1 012034Z 04003KT 09/M14 A3036 RMK A01 T00941137  RH  018%=      5-min Rain = 0
KEA1 012035Z 02003KT 09/M14 A3036 RMK A01 T00931137  RH  018%=      5-min Rain = 0
KEA1 012036Z 03004KT 09/M14 A3036 RMK A01 T00931136  RH  018%=      5-min Rain = 0
KEA1 012037Z 04004KT 10/M13 A3036 RMK A01 T00991131  RH  018%=      5-min Rain = 0
KEA1 012038Z 02006KT 10/M13 A3035 RMK A01 T01001132  RH  018%=      5-min Rain = 0
KEA1 012039Z 34012KT 10/M13 A3035 RMK A01 T01021133  RH  018%=      5-min Rain = 0
KEA1 012040Z 35010KT 10/M13 A3036 RMK A01 T01011134  RH  018%=      5-min Rain = 0
KEA1 012041Z 35009KT 10/M14 A3035 RMK A01 T00981136  RH  018%=      5-min Rain = 0
KEA1 012042Z 36010KT 10/M14 A3036 RMK A01 T00971135  RH  018%=      5-min Rain = 0
KEA1 012043Z 34006KT 10/M14 A3036 RMK A01 T00981135  RH  018%=      5-min Rain = 0
KEA1 012044Z 36005KT 10/M14 A3035 RMK A01 T00981135  RH  018%=      5-min Rain = 0
KEA1 012045Z 33007KT 10/M14 A3035 RMK A01 T00971136  RH  018%=      5-min Rain = 0
KEA1 012046Z 34005KT 10/M14 A3036 RMK A01 T00951137  RH  018%=      5-min Rain = 0
KEA1 012047Z 36009KT 09/M14 A3035 RMK A01 T00921138  RH  018%=      5-min Rain = 0
KEA1 012048Z 01009G14KT 09/M13 A3035 RMK A01 T00941133  RH  019%=      5-min Rain = 0
KEA1 012049Z 02012KT 10/M13 A3035 RMK A01 T00961131  RH  019%=      5-min Rain = 0
KEA1 012050Z 02012KT 10/M13 A3035 RMK A01 T00981131  RH  018%=      5-min Rain = 0
KEA1 012051Z 01011KT 10/M13 A3035 RMK A01 T00991132  RH  018%=      5-min Rain = 0
KEA1 012052Z 01010KT 10/M13 A3035 RMK A01 T00991134  RH  018%=      5-min Rain = 0
KEA1 012053Z 36008KT 10/M14 A3035 RMK A01 T00961136  RH  018%=      5-min Rain = 0
KEA1 012054Z 36009KT 10/M13 A3035 RMK A01 T00951134  RH  018%=      5-min Rain = 0
KEA1 012055Z 34007KT 10/M13 A3035 RMK A01 T00961133  RH  018%=      5-min Rain = 0
KEA1 012056Z 32007KT 10/M13 A3035 RMK A01 T00951134  RH  018%=      5-min Rain = 0
KEA1 012057Z 33005KT 10/M13 A3035 RMK A01 T00951134  RH  019%=      5-min Rain = 0
KEA1 012058Z 33007KT 10/M13 A3035 RMK A01 T00951133  RH  019%=      5-min Rain = 0
KEA1 012059Z 33007KT 09/M13 A3035 RMK A01 T00941133  RH  019%=      5-min Rain = 0
KEA1 012100Z 32007KT 10/M13 A3035 RMK A01 T00961132  RH  019%=      5-min Rain = 0
KEA1 012101Z 30006KT 10/M13 A3035 RMK A01 T00961133  RH  018%=      5-min Rain = 0
KEA1 012102Z 01008KT 10/M13 A3035 RMK A01 T00971132  RH  018%=      5-min Rain = 0
KEA1 012103Z 35006KT 10/M13 A3035 RMK A01 T01001130  RH  018%=      5-min Rain = 0
KEA1 012104Z 33008KT 10/M13 A3035 RMK A01 T01021129  RH  018%=      5-min Rain = 0
KEA1 012105Z 00008KT 10/M13 A3035 RMK A01 T01031130  RH  018%=      5-min Rain = 0
KEA1 012106Z 01010KT 10/M13 A3035 RMK A01 T01031131  RH  018%=      5-min Rain = 0
KEA1 012107Z 03010KT 10/M13 A3035 RMK A01 T01021133  RH  018%=      5-min Rain = 0
KEA1 012108Z 04007KT 10/M14 A3035 RMK A01 T01001135  RH  018%=      5-min Rain = 0
KEA1 012109Z 36008KT 10/M14 A3035 RMK A01 T00971135  RH  018%=      5-min Rain = 0
KEA1 012110Z 35006KT 10/M14 A3035 RMK A01 T00961135  RH  018%=      5-min Rain = 0
KEA1 012111Z 00005KT 10/M13 A3035 RMK A01 T00971132  RH  018%=      5-min Rain = 0
KEA1 012112Z 00005KT 10/M13 A3035 RMK A01 T00981133  RH  018%=      5-min Rain = 0
KEA1 012113Z 03008KT 10/M13 A3035 RMK A01 T00991133  RH  018%=      5-min Rain = 0
KEA1 012114Z 01006KT 10/M13 A3035 RMK A01 T01001134  RH  018%=      5-min Rain = 0
KEA1 012115Z 04008G13KT 10/M13 A3035 RMK A01 T01011133  RH  018%=      5-min Rain = 0
KEA1 012116Z 05008KT 10/M13 A3035 RMK A01 T01021133  RH  018%=      5-min Rain = 0
KEA1 012117Z 06007KT 10/M14 A3035 RMK A01 T01001135  RH  018%=      5-min Rain = 0
KEA1 012118Z 07007KT 10/M14 A3035 RMK A01 T00991135  RH  018%=      5-min Rain = 0
KEA1 012119Z 08006KT 10/M13 A3035 RMK A01 T00991134  RH  018%=      5-min Rain = 0
KEA1 012120Z 04007G13KT 10/M13 A3035 RMK A01 T00991134  RH  018%=      5-min Rain = 0
KEA1 012121Z 01007KT 10/M13 A3035 RMK A01 T00991134  RH  018%=      5-min Rain = 0
KEA1 012122Z 36004KT 10/M14 A3035 RMK A01 T00971135  RH  018%=      5-min Rain = 0
KEA1 012123Z 33003KT 09/M14 A3035 RMK A01 T00941137  RH  018%=      5-min Rain = 0
KEA1 012124Z 02004KT 10/M13 A3035 RMK A01 T00961133  RH  018%=      5-min Rain = 0
KEA1 012125Z 07005KT 10/M13 A3035 RMK A01 T00981132  RH  018%=      5-min Rain = 0
KEA1 012126Z 08003KT 10/M13 A3035 RMK A01 T00991131  RH  018%=      5-min Rain = 0
KEA1 012127Z 08003KT 10/M13 A3035 RMK A01 T00991131  RH  018%=      5-min Rain = 0
KEA1 012128Z 03003KT 10/M13 A3035 RMK A01 T01021129  RH  018%=      5-min Rain = 0
KEA1 012129Z 35003KT 10/M13 A3035 RMK A01 T01031131  RH  018%=      5-min Rain = 0
KEA1 012130Z 32005KT 10/M13 A3035 RMK A01 T01031132  RH  018%=      5-min Rain = 0
KEA1 012131Z 35008KT 10/M13 A3035 RMK A01 T01011133  RH  018%=      5-min Rain = 0
KEA1 012132Z 01011KT 10/M13 A3035 RMK A01 T01041130  RH  018%=      5-min Rain = 0
KEA1 012133Z 01010KT 10/M13 A3035 RMK A01 T01041132  RH  018%=      5-min Rain = 0
KEA1 012134Z 36009KT 10/M13 A3035 RMK A01 T01031133  RH  018%=      5-min Rain = 0
KEA1 012135Z 35004KT 10/M14 A3035 RMK A01 T01001135  RH  018%=      5-min Rain = 0
KEA1 012136Z 35001KT 10/M14 A3035 RMK A01 T00981135  RH  018%=      5-min Rain = 0
KEA1 012137Z 34005KT 10/M13 A3035 RMK A01 T00971133  RH  018%=      5-min Rain = 0
KEA1 012138Z 35006KT 10/M13 A3035 RMK A01 T00981132  RH  018%=      5-min Rain = 0
KEA1 012139Z 35006KT 10/M13 A3035 RMK A01 T01031130  RH  018%=      5-min Rain = 0
KEA1 012140Z 35005KT 10/M13 A3035 RMK A01 T01041132  RH  018%=      5-min Rain = 0
KEA1 012141Z 35004KT 10/M14 A3035 RMK A01 T01021135  RH  017%=      5-min Rain = 0
KEA1 012142Z 35004KT 10/M14 A3035 RMK A01 T00991135  RH  018%=      5-min Rain = 0
KEA1 012143Z 01008KT 10/M13 A3035 RMK A01 T00991134  RH  018%=      5-min Rain = 0
KEA1 012144Z 00010KT 10/M14 A3035 RMK A01 T01001135  RH  018%=      5-min Rain = 0
KEA1 012145Z 01006KT 10/M14 A3035 RMK A01 T00991136  RH  018%=      5-min Rain = 0
KEA1 012146Z 01006KT 10/M14 A3035 RMK A01 T00991135  RH  018%=      5-min Rain = 0
KEA1 012147Z 04004KT 10/M14 A3035 RMK A01 T01011135  RH  018%=      5-min Rain = 0
KEA1 012148Z 05003KT 10/M14 A3035 RMK A01 T01011137  RH  017%=      5-min Rain = 0
KEA1 012149Z 02003KT 10/M14 A3035 RMK A01 T00991138  RH  017%=      5-min Rain = 0
KEA1 012150Z 34004KT 10/M14 A3035 RMK A01 T00991137  RH  018%=      5-min Rain = 0
KEA1 012151Z 34005KT 10/M13 A3035 RMK A01 T01001134  RH  018%=      5-min Rain = 0
KEA1 012152Z 34005KT 10/M14 A3035 RMK A01 T01001136  RH  018%=      5-min Rain = 0
KEA1 012153Z 02005KT 10/M13 A3035 RMK A01 T01011133  RH  018%=      5-min Rain = 0
KEA1 012154Z 02008KT 11/M13 A3034 RMK A01 T01051131  RH  018%=      5-min Rain = 0
KEA1 012155Z 02005KT 11/M13 A3034 RMK A01 T01051134  RH  017%=      5-min Rain = 0
KEA1 012156Z 05003KT 10/M14 A3034 RMK A01 T01021135  RH  017%=      5-min Rain = 0
KEA1 012157Z 05004KT 10/M13 A3035 RMK A01 T01021134  RH  018%=      5-min Rain = 0
KEA1 012158Z 01006KT 10/M13 A3035 RMK A01 T01041132  RH  018%=      5-min Rain = 0
KEA1 012159Z 35009KT 11/M13 A3034 RMK A01 T01071131  RH  017%=      5-min Rain = 0
KEA1 012200Z 34010KT 11/M13 A3035 RMK A01 T01051133  RH  017%=      5-min Rain = 0
KEA1 012201Z 34007KT 10/M13 A3035 RMK A01 T01021134  RH  018%=      5-min Rain = 0
KEA1 012202Z 31005KT 10/M13 A3034 RMK A01 T01011133  RH  018%=      5-min Rain = 0
KEA1 012203Z 32007KT 10/M13 A3034 RMK A01 T01011131  RH  018%=      5-min Rain = 0
KEA1 012204Z 32005KT 10/M13 A3035 RMK A01 T01001133  RH  018%=      5-min Rain = 0
KEA1 012205Z 34007KT 10/M13 A3034 RMK A01 T00991132  RH  018%=      5-min Rain = 0
KEA1 012206Z 34010KT 10/M13 A3034 RMK A01 T01001132  RH  018%=      5-min Rain = 0
KEA1 012207Z 36009KT 10/M13 A3034 RMK A01 T01011131  RH  018%=      5-min Rain = 0
KEA1 012208Z 33008KT 10/M13 A3034 RMK A01 T01041131  RH  018%=      5-min Rain = 0
KEA1 012209Z 00009KT 10/M13 A3034 RMK A01 T01031133  RH  018%=      5-min Rain = 0
KEA1 012210Z 01008KT 10/M13 A3034 RMK A01 T01021132  RH  018%=      5-min Rain = 0
KEA1 012211Z 01007KT 11/M13 A3034 RMK A01 T01061129  RH  018%=      5-min Rain = 0
KEA1 012212Z 02009KT 11/M13 A3034 RMK A01 T01081131  RH  017%=      5-min Rain = 0
KEA1 012213Z 03003KT 10/M14 A3035 RMK A01 T01031135  RH  017%=      5-min Rain = 0
KEA1 012214Z 01003KT 10/M13 A3034 RMK A01 T01011133  RH  018%=      5-min Rain = 0
KEA1 012215Z 29004KT 10/M13 A3034 RMK A01 T01021132  RH  018%=      5-min Rain = 0
KEA1 012216Z 30003KT 10/M13 A3034 RMK A01 T01031132  RH  018%=      5-min Rain = 0
KEA1 012217Z 35006KT 11/M13 A3034 RMK A01 T01051130  RH  018%=      5-min Rain = 0
KEA1 012218Z 35007KT 11/M13 A3034 RMK A01 T01071131  RH  017%=      5-min Rain = 0
KEA1 012219Z 34006KT 11/M13 A3034 RMK A01 T01051133  RH  017%=      5-min Rain = 0
KEA1 012220Z 29005KT 11/M13 A3034 RMK A01 T01051133  RH  017%=      5-min Rain = 0
KEA1 012221Z 28003KT 11/M13 A3034 RMK A01 T01051133  RH  017%=      5-min Rain = 0
KEA1 012222Z 36001KT 10/M14 A3034 RMK A01 T01041135  RH  017%=      5-min Rain = 0
KEA1 012223Z 05005KT 10/M13 A3034 RMK A01 T01041133  RH  017%=      5-min Rain = 0
KEA1 012224Z 04005KT 10/M14 A3034 RMK A01 T01031136  RH  017%=      5-min Rain = 0
KEA1 012225Z 03008KT 10/M14 A3034 RMK A01 T01011136  RH  017%=      5-min Rain = 0
KEA1 012226Z 03008KT 10/M13 A3034 RMK A01 T01021134  RH  018%=      5-min Rain = 0
KEA1 012227Z 03006KT 10/M13 A3034 RMK A01 T01041133  RH  018%=      5-min Rain = 0
KEA1 012228Z 05005KT 10/M13 A3034 RMK A01 T01021133  RH  018%=      5-min Rain = 0
KEA1 012229Z 05003KT 10/M13 A3034 RMK A01 T01031133  RH  018%=      5-min Rain = 0
KEA1 012230Z 05003KT 10/M13 A3034 RMK A01 T01021134  RH  018%=      5-min Rain = 0
KEA1 012231Z 06007KT 10/M13 A3034 RMK A01 T01011133  RH  018%=      5-min Rain = 0
KEA1 012232Z 07007KT 10/M14 A3034 RMK A01 T01011136  RH  017%=      5-min Rain = 0
KEA1 012233Z 03009KT 10/M14 A3034 RMK A01 T01001135  RH  018%=      5-min Rain = 0
KEA1 012234Z 03006KT 10/M13 A3034 RMK A01 T01011131  RH  018%=      5-min Rain = 0
KEA1 012235Z 02003KT 10/M13 A3034 RMK A01 T01011131  RH  018%=      5-min Rain = 0
KEA1 012236Z 04001KT 10/M13 A3034 RMK A01 T01011131  RH  018%=      5-min Rain = 0
KEA1 012237Z 04004KT 10/M13 A3034 RMK A01 T01021130  RH  018%=      5-min Rain = 0
KEA1 012238Z 05002KT 10/M13 A3034 RMK A01 T01031131  RH  018%=      5-min Rain = 0
KEA1 012239Z 05002KT 10/M13 A3034 RMK A01 T01011133  RH  018%=      5-min Rain = 0
KEA1 012240Z 07003KT 10/M13 A3034 RMK A01 T01001132  RH  018%=      5-min Rain = 0
KEA1 012241Z 06005KT 10/M13 A3034 RMK A01 T01011133  RH  018%=      5-min Rain = 0
KEA1 012242Z 07005KT 10/M13 A3034 RMK A01 T01021134  RH  018%=      5-min Rain = 0
KEA1 012243Z 08002KT 10/M13 A3034 RMK A01 T01031134  RH  018%=      5-min Rain = 0
KEA1 012244Z 03005KT 10/M13 A3034 RMK A01 T01031133  RH  018%=      5-min Rain = 0
KEA1 012245Z 04010KT 10/M13 A3034 RMK A01 T01041132  RH  018%=      5-min Rain = 0
KEA1 012246Z 04009KT 10/M13 A3034 RMK A01 T01031130  RH  018%=      5-min Rain = 0
KEA1 012247Z 02008KT 10/M13 A3034 RMK A01 T01021131  RH  018%=      5-min Rain = 0
KEA1 012248Z 05006KT 10/M13 A3034 RMK A01 T01011131  RH  018%=      5-min Rain = 0
KEA1 012249Z 06003KT 10/M13 A3034 RMK A01 T01011132  RH  018%=      5-min Rain = 0
KEA1 012250Z 08002KT 10/M13 A3034 RMK A01 T01001131  RH  018%=      5-min Rain = 0
KEA1 012251Z 03006KT 10/M13 A3034 RMK A01 T01021130  RH  018%=      5-min Rain = 0
KEA1 012252Z 03007KT 10/M13 A3034 RMK A01 T01021131  RH  018%=      5-min Rain = 0
KEA1 012253Z 04009KT 10/M13 A3034 RMK A01 T01011130  RH  018%=      5-min Rain = 0
KEA1 012254Z 02006KT 10/M13 A3034 RMK A01 T01011130  RH  018%=      5-min Rain = 0
KEA1 012255Z 02008KT 10/M13 A3034 RMK A01 T00991131  RH  018%=      5-min Rain = 0
KEA1 012256Z 01008KT 10/M13 A3034 RMK A01 T01001130  RH  018%=      5-min Rain = 0
KEA1 012257Z 02005KT 10/M13 A3034 RMK A01 T01011130  RH  018%=      5-min Rain = 0
KEA1 012258Z 02005KT 10/M13 A3034 RMK A01 T01021130  RH  018%=      5-min Rain = 0
KEA1 012259Z 04007KT 10/M13 A3034 RMK A01 T01021130  RH  018%=      5-min Rain = 0
KEA1 012300Z 04008KT 10/M13 A3034 RMK A01 T01021130  RH  018%=      5-min Rain = 0
KEA1 012301Z 04007KT 10/M13 A3034 RMK A01 T01011131  RH  018%=      5-min Rain = 0
KEA1 012302Z 03005KT 10/M13 A3034 RMK A01 T00991132  RH  018%=      5-min Rain = 0
KEA1 012303Z 04002KT 10/M13 A3034 RMK A01 T00991132  RH  018%=      5-min Rain = 0
KEA1 012304Z 03003KT 10/M13 A3034 RMK A01 T00981132  RH  018%=      5-min Rain = 0
KEA1 012305Z 03008KT 10/M13 A3034 RMK A01 T01001131  RH  018%=      5-min Rain = 0
KEA1 012306Z 04009KT 10/M13 A3034 RMK A01 T01011132  RH  018%=      5-min Rain = 0
KEA1 012307Z 04008KT 10/M13 A3034 RMK A01 T01011133  RH  018%=      5-min Rain = 0
KEA1 012308Z 04005KT 10/M13 A3034 RMK A01 T01001134  RH  018%=      5-min Rain = 0
KEA1 012309Z 07005KT 10/M13 A3034 RMK A01 T00991134  RH  018%=      5-min Rain = 0
KEA1 012310Z 07005KT 10/M13 A3034 RMK A01 T00981134  RH  018%=      5-min Rain = 0
KEA1 012311Z 05004KT 10/M13 A3034 RMK A01 T00981134  RH  018%=      5-min Rain = 0
KEA1 012312Z 04001KT 10/M13 A3034 RMK A01 T00981134  RH  018%=      5-min Rain = 0
KEA1 012313Z 04000KT 10/M13 A3034 RMK A01 T00991132  RH  018%=      5-min Rain = 0
KEA1 012314Z 07001KT 10/M13 A3034 RMK A01 T01011133  RH  018%=      5-min Rain = 0
KEA1 012315Z 07004KT 10/M13 A3034 RMK A01 T01011133  RH  018%=      5-min Rain = 0
KEA1 012316Z 07005KT 10/M13 A3034 RMK A01 T01001132  RH  018%=      5-min Rain = 0
KEA1 012317Z 06005KT 10/M13 A3034 RMK A01 T01001132  RH  018%=      5-min Rain = 0
KEA1 012318Z 07004KT 10/M13 A3034 RMK A01 T01001131  RH  018%=      5-min Rain = 0
KEA1 012319Z 05003KT 10/M13 A3034 RMK A01 T00991132  RH  018%=      5-min Rain = 0
KEA1 012320Z 01002KT 10/M13 A3034 RMK A01 T00981131  RH  018%=      5-min Rain = 0
KEA1 012321Z 02003KT 10/M13 A3034 RMK A01 T00981131  RH  018%=      5-min Rain = 0
KEA1 012322Z 35003KT 10/M13 A3034 RMK A01 T00981131  RH  018%=      5-min Rain = 0
KEA1 012323Z 02003KT 10/M13 A3034 RMK A01 T00981131  RH  018%=      5-min Rain = 0
KEA1 012324Z 05003KT 10/M13 A3034 RMK A01 T00971131  RH  019%=      5-min Rain = 0
KEA1 012325Z 03004KT 10/M13 A3034 RMK A01 T00971131  RH  019%=      5-min Rain = 0
KEA1 012326Z 07005KT 10/M13 A3034 RMK A01 T00981130  RH  019%=      5-min Rain = 0
KEA1 012327Z 08004KT 10/M13 A3034 RMK A01 T00991131  RH  018%=      5-min Rain = 0
KEA1 012328Z 04008KT 10/M13 A3034 RMK A01 T00981132  RH  018%=      5-min Rain = 0
KEA1 012329Z 02009KT 10/M13 A3034 RMK A01 T00981130  RH  019%=      5-min Rain = 0
KEA1 012330Z 03010KT 10/M13 A3034 RMK A01 T00991130  RH  019%=      5-min Rain = 0
KEA1 012331Z 03009KT 10/M13 A3034 RMK A01 T00991131  RH  018%=      5-min Rain = 0
KEA1 012332Z 03006KT 10/M13 A3034 RMK A01 T00971131  RH  019%=      5-min Rain = 0
KEA1 012333Z 04006KT 10/M13 A3034 RMK A01 T00981130  RH  019%=      5-min Rain = 0
KEA1 012334Z 03005KT 10/M13 A3034 RMK A01 T01001129  RH  019%=      5-min Rain = 0
KEA1 012335Z 02006KT 10/M13 A3034 RMK A01 T01011130  RH  018%=      5-min Rain = 0
KEA1 012336Z 03006KT 10/M13 A3034 RMK A01 T01001132  RH  018%=      5-min Rain = 0
KEA1 012337Z 05007KT 10/M13 A3034 RMK A01 T00991132  RH  018%=      5-min Rain = 0
KEA1 012338Z 06006KT 10/M13 A3034 RMK A01 T00981131  RH  018%=      5-min Rain = 0
KEA1 012339Z 06008KT 10/M13 A3034 RMK A01 T00981130  RH  019%=      5-min Rain = 0
KEA1 012340Z 05009KT 10/M13 A3034 RMK A01 T00981131  RH  019%=      5-min Rain = 0
KEA1 012341Z 04006KT 10/M13 A3034 RMK A01 T00961131  RH  019%=      5-min Rain = 0
KEA1 012342Z 04005KT 10/M13 A3034 RMK A01 T00951131  RH  019%=      5-min Rain = 0
KEA1 012343Z 04006KT 10/M13 A3034 RMK A01 T00951131  RH  019%=      5-min Rain = 0
KEA1 012344Z 04006KT 10/M13 A3034 RMK A01 T00951131  RH  019%=      5-min Rain = 0
KEA1 012345Z 04007KT 10/M13 A3034 RMK A01 T00951131  RH  019%=      5-min Rain = 0
KEA1 012346Z 03006KT 10/M13 A3034 RMK A01 T00951132  RH  019%=      5-min Rain = 0
KEA1 012347Z 04005KT 10/M13 A3034 RMK A01 T00951132  RH  019%=      5-min Rain = 0
KEA1 012348Z 03006KT 10/M13 A3034 RMK A01 T00951132  RH  019%=      5-min Rain = 0
KEA1 012349Z 04004KT 10/M13 A3034 RMK A01 T00951133  RH  019%=      5-min Rain = 0
KEA1 012350Z 05004KT 09/M13 A3034 RMK A01 T00941133  RH  019%=      5-min Rain = 0
KEA1 012351Z 04003KT 09/M13 A3034 RMK A01 T00941133  RH  019%=      5-min Rain = 0
KEA1 012352Z 04003KT 09/M13 A3034 RMK A01 T00931134  RH  019%=      5-min Rain = 0
KEA1 012353Z 07003KT 09/M13 A3034 RMK A01 T00931133  RH  019%=      5-min Rain = 0
KEA1 012354Z 07005KT 09/M13 A3034 RMK A01 T00931133  RH  019%=      5-min Rain = 0
KEA1 012355Z 07007KT 09/M13 A3034 RMK A01 T00931134  RH  019%=      5-min Rain = 0
KEA1 012356Z 06006KT 09/M13 A3034 RMK A01 T00931134  RH  019%=      5-min Rain = 0
KEA1 012357Z 06005KT 09/M13 A3034 RMK A01 T00921134  RH  019%=      5-min Rain = 0
KEA1 012358Z 06004KT 09/M13 A3034 RMK A01 T00931133  RH  019%=      5-min Rain = 0
KEA1 012359Z 07005KT 09/M13 A3034 RMK A01 T00921134  RH  019%=      5-min Rain = 0
KEA1 020000Z 06005KT 09/M13 A3034 RMK A01 T00921134  RH  019%=      5-min Rain = 0
KEA1 020001Z 06005KT 09/M13 A3034 RMK A01 T00921133  RH  019%=      5-min Rain = 0
KEA1 020002Z 07006KT 09/M13 A3034 RMK A01 T00921132  RH  019%=      5-min Rain = 0
KEA1 020003Z 06007KT 09/M13 A3034 RMK A01 T00921131  RH  019%=      5-min Rain = 0
KEA1 020004Z 07006KT 09/M13 A3034 RMK A01 T00911132  RH  019%=      5-min Rain = 0
KEA1 020005Z 05004KT 09/M13 A3034 RMK A01 T00911132  RH  019%=      5-min Rain = 0
KEA1 020006Z 05006KT 09/M13 A3034 RMK A01 T00911132  RH  019%=      5-min Rain = 0
KEA1 020007Z 05006KT 09/M13 A3034 RMK A01 T00901132  RH  019%=      5-min Rain = 0
KEA1 020008Z 05005KT 09/M13 A3034 RMK A01 T00901132  RH  019%=      5-min Rain = 0
KEA1 020009Z 05005KT 09/M13 A3034 RMK A01 T00901131  RH  019%=      5-min Rain = 0
KEA1 020010Z 06004KT 09/M13 A3034 RMK A01 T00901131  RH  020%=      5-min Rain = 0
KEA1 020011Z 06004KT 09/M13 A3034 RMK A01 T00891131  RH  020%=      5-min Rain = 0
KEA1 020012Z 04005KT 09/M13 A3034 RMK A01 T00891131  RH  020%=      5-min Rain = 0
KEA1 020013Z 05006KT 09/M13 A3034 RMK A01 T00891131  RH  020%=      5-min Rain = 0
KEA1 020014Z 05006KT 09/M13 A3034 RMK A01 T00891131  RH  020%=      5-min Rain = 0
KEA1 020015Z 05006KT 09/M13 A3034 RMK A01 T00891130  RH  020%=      5-min Rain = 0
KEA1 020016Z 04006KT 09/M13 A3034 RMK A01 T00881131  RH  020%=      5-min Rain = 0
KEA1 020017Z 05005KT 09/M13 A3034 RMK A01 T00881131  RH  020%=      5-min Rain = 0
KEA1 020018Z 06006KT 09/M13 A3034 RMK A01 T00881131  RH  020%=      5-min Rain = 0
KEA1 020019Z 05005KT 09/M13 A3034 RMK A01 T00871132  RH  020%=      5-min Rain = 0
KEA1 020020Z 05004KT 09/M13 A3034 RMK A01 T00861132  RH  020%=      5-min Rain = 0
KEA1 020021Z 05005KT 09/M13 A3034 RMK A01 T00851131  RH  020%=      5-min Rain = 0
KEA1 020022Z 06005KT 09/M13 A3034 RMK A01 T00851131  RH  020%=      5-min Rain = 0
KEA1 020023Z 05006KT 09/M13 A3034 RMK A01 T00851131  RH  020%=      5-min Rain = 0
KEA1 020024Z 06006KT 09/M13 A3034 RMK A01 T00851132  RH  020%=      5-min Rain = 0
KEA1 020025Z 06006KT 08/M13 A3034 RMK A01 T00841131  RH  020%=      5-min Rain = 0
KEA1 020026Z 07005KT 08/M13 A3034 RMK A01 T00831132  RH  020%=      5-min Rain = 0
KEA1 020027Z 07005KT 08/M13 A3034 RMK A01 T00821132  RH  020%=      5-min Rain = 0
KEA1 020028Z 06006KT 08/M13 A3034 RMK A01 T00821131  RH  021%=      5-min Rain = 0
KEA1 020029Z 06006KT 08/M13 A3034 RMK A01 T00811131  RH  021%=      5-min Rain = 0
KEA1 020030Z 06006KT 08/M13 A3034 RMK A01 T00811131  RH  021%=      5-min Rain = 0
KEA1 020031Z 06005KT 08/M13 A3034 RMK A01 T00801132  RH  021%=      5-min Rain = 0
KEA1 020032Z 06005KT 08/M13 A3034 RMK A01 T00791132  RH  021%=      5-min Rain = 0
KEA1 020033Z 06005KT 08/M13 A3034 RMK A01 T00781131  RH  021%=      5-min Rain = 0
KEA1 020034Z 06004KT 08/M13 A3034 RMK A01 T00781131  RH  021%=      5-min Rain = 0
KEA1 020035Z 06004KT 08/M13 A3034 RMK A01 T00771132  RH  021%=      5-min Rain = 0
KEA1 020036Z 07004KT 08/M13 A3034 RMK A01 T00761132  RH  021%=      5-min Rain = 0
KEA1 020037Z 07004KT 08/M13 A3034 RMK A01 T00751132  RH  021%=      5-min Rain = 0
KEA1 020038Z 07004KT 08/M13 A3034 RMK A01 T00751132  RH  021%=      5-min Rain = 0
KEA1 020039Z 07004KT 07/M13 A3034 RMK A01 T00741131  RH  022%=      5-min Rain = 0
KEA1 020040Z 08005KT 07/M13 A3034 RMK A01 T00741132  RH  022%=      5-min Rain = 0
KEA1 020041Z 08005KT 07/M13 A3034 RMK A01 T00731132  RH  022%=      5-min Rain = 0
KEA1 020042Z 08006KT 07/M13 A3034 RMK A01 T00721132  RH  022%=      5-min Rain = 0
KEA1 020043Z 08006KT 07/M13 A3034 RMK A01 T00721133  RH  022%=      5-min Rain = 0
KEA1 020044Z 08005KT 07/M13 A3034 RMK A01 T00701134  RH  022%=      5-min Rain = 0
KEA1 020045Z 08005KT 07/M13 A3034 RMK A01 T00691133  RH  022%=      5-min Rain = 0
KEA1 020046Z 08005KT 07/M13 A3034 RMK A01 T00671134  RH  022%=      5-min Rain = 0
KEA1 020047Z 08005KT 07/M13 A3034 RMK A01 T00661134  RH  022%=      5-min Rain = 0
KEA1 020048Z 08006KT 07/M13 A3034 RMK A01 T00651133  RH  023%=      5-min Rain = 0
KEA1 020049Z 07007KT 06/M13 A3034 RMK A01 T00641134  RH  023%=      5-min Rain = 0
KEA1 020050Z 08005KT 06/M13 A3034 RMK A01 T00631134  RH  023%=      5-min Rain = 0
KEA1 020051Z 08006KT 06/M13 A3034 RMK A01 T00631133  RH  023%=      5-min Rain = 0
KEA1 020052Z 08006KT 06/M13 A3034 RMK A01 T00621134  RH  023%=      5-min Rain = 0
KEA1 020053Z 08008KT 06/M13 A3034 RMK A01 T00621134  RH  023%=      5-min Rain = 0
KEA1 020054Z 08007KT 06/M13 A3034 RMK A01 T00611134  RH  023%=      5-min Rain = 0
KEA1 020055Z 07007KT 06/M14 A3034 RMK A01 T00601135  RH  023%=      5-min Rain = 0
KEA1 020056Z 08007KT 06/M14 A3034 RMK A01 T00591135  RH  023%=      5-min Rain = 0
KEA1 020057Z 08007KT 06/M14 A3034 RMK A01 T00581135  RH  024%=      5-min Rain = 0
KEA1 020058Z 08007KT 06/M14 A3034 RMK A01 T00571135  RH  024%=      5-min Rain = 0
KEA1 020059Z 08007KT 06/M14 A3034 RMK A01 T00561135  RH  024%=      5-min Rain = 0
KEA1 020100Z 08007KT 06/M13 A3034 RMK A01 T00551134  RH  024%=      5-min Rain = 0
KEA1 020101Z 08006KT 05/M13 A3034 RMK A01 T00541134  RH  024%=      5-min Rain = 0
KEA1 020102Z 08006KT 05/M13 A3034 RMK A01 T00541134  RH  024%=      5-min Rain = 0
KEA1 020103Z 08006KT 05/M13 A3034 RMK A01 T00541134  RH  024%=      5-min Rain = 0
KEA1 020104Z 08006KT 05/M13 A3034 RMK A01 T00541134  RH  024%=      5-min Rain = 0
KEA1 020105Z 08006KT 06/M13 A3034 RMK A01 T00551134  RH  024%=      5-min Rain = 0
KEA1 020106Z 08006KT 06/M13 A3034 RMK A01 T00551134  RH  024%=      5-min Rain = 0
KEA1 020107Z 08006KT 05/M13 A3034 RMK A01 T00541134  RH  024%=      5-min Rain = 0
KEA1 020108Z 08006KT 05/M13 A3034 RMK A01 T00541134  RH  024%=      5-min Rain = 0
KEA1 020109Z 08006KT 06/M13 A3034 RMK A01 T00561133  RH  024%=      5-min Rain = 0
KEA1 020110Z 08006KT 06/M13 A3034 RMK A01 T00571133  RH  024%=      5-min Rain = 0
KEA1 020111Z 08006KT 06/M13 A3034 RMK A01 T00561134  RH  024%=      5-min Rain = 0
KEA1 020112Z 08006KT 06/M14 A3034 RMK A01 T00551135  RH  024%=      5-min Rain = 0
KEA1 020113Z 08006KT 05/M14 A3034 RMK A01 T00541135  RH  024%=      5-min Rain = 0
KEA1 020114Z 08005KT 05/M14 A3034 RMK A01 T00521135  RH  024%=      5-min Rain = 0
KEA1 020115Z 08005KT 05/M13 A3034 RMK A01 T00521134  RH  025%=      5-min Rain = 0
KEA1 020116Z 08005KT 05/M13 A3034 RMK A01 T00521134  RH  025%=      5-min Rain = 0
KEA1 020117Z 08005KT 05/M13 A3034 RMK A01 T00521134  RH  025%=      5-min Rain = 0
KEA1 020118Z 08004KT 05/M13 A3034 RMK A01 T00521134  RH  025%=      5-min Rain = 0
KEA1 020119Z 09004KT 05/M13 A3034 RMK A01 T00511134  RH  025%=      5-min Rain = 0
KEA1 020120Z 09004KT 05/M13 A3034 RMK A01 T00511134  RH  025%=      5-min Rain = 0
KEA1 020121Z 09004KT 05/M13 A3034 RMK A01 T00501134  RH  025%=      5-min Rain = 0
KEA1 020122Z 09004KT 05/M13 A3034 RMK A01 T00511134  RH  025%=      5-min Rain = 0
KEA1 020123Z 09004KT 05/M13 A3034 RMK A01 T00511133  RH  025%=      5-min Rain = 0
KEA1 020124Z 09004KT 05/M13 A3034 RMK A01 T00511134  RH  025%=      5-min Rain = 0
KEA1 020125Z 09004KT 05/M14 A3034 RMK A01 T00491136  RH  025%=      5-min Rain = 0
KEA1 020126Z 10004KT 04/M14 A3034 RMK A01 T00431139  RH  025%=      5-min Rain = 0
KEA1 020127Z 10004KT 04/M14 A3034 RMK A01 T00401138  RH  026%=      5-min Rain = 0
KEA1 020128Z 11004KT 04/M14 A3034 RMK A01 T00361140  RH  026%=      5-min Rain = 0
KEA1 020129Z 11004KT 03/M14 A3034 RMK A01 T00331140  RH  027%=      5-min Rain = 0
KEA1 020130Z 12004KT 03/M14 A3034 RMK A01 T00291141  RH  027%=      5-min Rain = 0
KEA1 020131Z 12004KT 03/M14 A3034 RMK A01 T00251142  RH  028%=      5-min Rain = 0
KEA1 020132Z 12004KT 02/M14 A3034 RMK A01 T00231140  RH  029%=      5-min Rain = 0
KEA1 020133Z 12004KT 02/M14 A3034 RMK A01 T00221140  RH  029%=      5-min Rain = 0
KEA1 020134Z 13004KT 02/M14 A3034 RMK A01 T00211139  RH  029%=      5-min Rain = 0
KEA1 020135Z 13004KT 02/M14 A3034 RMK A01 T00201139  RH  030%=      5-min Rain = 0
KEA1 020136Z 14004KT 02/M14 A3034 RMK A01 T00201139  RH  030%=      5-min Rain = 0
KEA1 020137Z 13004KT 02/M14 A3034 RMK A01 T00201139  RH  030%=      5-min Rain = 0
KEA1 020138Z 13005KT 02/M14 A3034 RMK A01 T00211138  RH  030%=      5-min Rain = 0
KEA1 020139Z 13005KT 02/M14 A3034 RMK A01 T00221137  RH  030%=      5-min Rain = 0
KEA1 020140Z 14005KT 02/M14 A3034 RMK A01 T00241137  RH  029%=      5-min Rain = 0
KEA1 020141Z 14005KT 03/M14 A3034 RMK A01 T00251137  RH  029%=      5-min Rain = 0
KEA1 020142Z 14005KT 03/M14 A3034 RMK A01 T00261138  RH  029%=      5-min Rain = 0
KEA1 020143Z 14005KT 03/M14 A3034 RMK A01 T00261138  RH  029%=      5-min Rain = 0
KEA1 020144Z 14005KT 03/M14 A3035 RMK A01 T00261138  RH  029%=      5-min Rain = 0
KEA1 020145Z 13005KT 03/M14 A3035 RMK A01 T00261137  RH  029%=      5-min Rain = 0
KEA1 020146Z 13005KT 03/M14 A3034 RMK A01 T00281137  RH  029%=      5-min Rain = 0
KEA1 020147Z 13006KT 03/M14 A3034 RMK A01 T00291137  RH  028%=      5-min Rain = 0
KEA1 020148Z 13006KT 03/M14 A3035 RMK A01 T00301137  RH  028%=      5-min Rain = 0
KEA1 020149Z 13006KT 03/M14 A3034 RMK A01 T00301137  RH  028%=      5-min Rain = 0
KEA1 020150Z 13006KT 03/M14 A3034 RMK A01 T00301138  RH  028%=      5-min Rain = 0
KEA1 020151Z 13006KT 03/M14 A3034 RMK A01 T00301138  RH  028%=      5-min Rain = 0
KEA1 020152Z 13006KT 03/M14 A3034 RMK A01 T00301137  RH  028%=      5-min Rain = 0
KEA1 020153Z 13006KT 03/M14 A3034 RMK A01 T00301137  RH  028%=      5-min Rain = 0
KEA1 020154Z 13006KT 03/M14 A3034 RMK A01 T00301138  RH  028%=      5-min Rain = 0
KEA1 020155Z 13006KT 03/M14 A3034 RMK A01 T00311137  RH  028%=      5-min Rain = 0
KEA1 020156Z 13006KT 03/M14 A3034 RMK A01 T00321137  RH  028%=      5-min Rain = 0
KEA1 020157Z 13006KT 03/M14 A3034 RMK A01 T00321137  RH  028%=      5-min Rain = 0
KEA1 020158Z 12006KT 03/M14 A3034 RMK A01 T00331137  RH  028%=      5-min Rain = 0
KEA1 020159Z 13006KT 03/M14 A3034 RMK A01 T00331137  RH  027%=      5-min Rain = 0
KEA1 020200Z 13005KT 03/M14 A3034 RMK A01 T00341137  RH  027%=      5-min Rain = 0
KEA1 020201Z 13006KT 04/M14 A3034 RMK A01 T00361137  RH  027%=      5-min Rain = 0
KEA1 020202Z 12006KT 04/M14 A3034 RMK A01 T00361138  RH  027%=      5-min Rain = 0
KEA1 020203Z 13006KT 04/M14 A3034 RMK A01 T00351138  RH  027%=      5-min Rain = 0
KEA1 020204Z 13006KT 03/M14 A3034 RMK A01 T00341138  RH  027%=      5-min Rain = 0
KEA1 020205Z 13006KT 03/M14 A3034 RMK A01 T00341138  RH  027%=      5-min Rain = 0
KEA1 020206Z 13006KT 03/M14 A3034 RMK A01 T00331138  RH  027%=      5-min Rain = 0
KEA1 020207Z 13006KT 03/M14 A3034 RMK A01 T00321138  RH  027%=      5-min Rain = 0
KEA1 020208Z 13006KT 03/M14 A3034 RMK A01 T00311138  RH  028%=      5-min Rain = 0
KEA1 020209Z 12006KT 03/M14 A3034 RMK A01 T00301138  RH  028%=      5-min Rain = 0
KEA1 020210Z 12006KT 03/M14 A3034 RMK A01 T00301138  RH  028%=      5-min Rain = 0
KEA1 020211Z 12006KT 03/M14 A3034 RMK A01 T00321137  RH  028%=      5-min Rain = 0
KEA1 020212Z 12006KT 03/M14 A3034 RMK A01 T00341136  RH  027%=      5-min Rain = 0
KEA1 020213Z 12006KT 04/M14 A3034 RMK A01 T00351137  RH  027%=      5-min Rain = 0
KEA1 020214Z 12006KT 04/M14 A3034 RMK A01 T00361137  RH  027%=      5-min Rain = 0
KEA1 020215Z 12007KT 04/M14 A3034 RMK A01 T00351138  RH  027%=      5-min Rain = 0
KEA1 020216Z 12006KT 03/M14 A3034 RMK A01 T00341138  RH  027%=      5-min Rain = 0
KEA1 020217Z 12006KT 03/M14 A3034 RMK A01 T00311139  RH  027%=      5-min Rain = 0
KEA1 020218Z 13006KT 03/M14 A3034 RMK A01 T00281139  RH  028%=      5-min Rain = 0
KEA1 020219Z 13006KT 03/M14 A3034 RMK A01 T00251140  RH  029%=      5-min Rain = 0
KEA1 020220Z 13007KT 02/M14 A3034 RMK A01 T00241138  RH  029%=      5-min Rain = 0
KEA1 020221Z 12007KT 03/M14 A3034 RMK A01 T00251137  RH  029%=      5-min Rain = 0
KEA1 020222Z 13007KT 03/M14 A3034 RMK A01 T00261137  RH  029%=      5-min Rain = 0
KEA1 020223Z 12007KT 03/M14 A3034 RMK A01 T00261138  RH  029%=      5-min Rain = 0
KEA1 020224Z 12007KT 03/M14 A3034 RMK A01 T00261137  RH  029%=      5-min Rain = 0
KEA1 020225Z 12007KT 03/M14 A3034 RMK A01 T00251138  RH  029%=      5-min Rain = 0
KEA1 020226Z 13007KT 02/M14 A3034 RMK A01 T00241138  RH  029%=      5-min Rain = 0
KEA1 020227Z 13007KT 02/M14 A3034 RMK A01 T00241138  RH  029%=      5-min Rain = 0
KEA1 020228Z 13006KT 02/M14 A3034 RMK A01 T00231138  RH  029%=      5-min Rain = 0
KEA1 020229Z 13006KT 02/M14 A3034 RMK A01 T00221138  RH  029%=      5-min Rain = 0
KEA1 020230Z 13006KT 02/M14 A3034 RMK A01 T00211138  RH  030%=      5-min Rain = 0
KEA1 020231Z 13006KT 02/M14 A3034 RMK A01 T00201139  RH  030%=      5-min Rain = 0
KEA1 020232Z 13006KT 02/M14 A3034 RMK A01 T00201138  RH  030%=      5-min Rain = 0
KEA1 020233Z 13006KT 02/M14 A3034 RMK A01 T00201137  RH  030%=      5-min Rain = 0
KEA1 020234Z 13006KT 02/M14 A3034 RMK A01 T00211137  RH  030%=      5-min Rain = 0
KEA1 020235Z 13006KT 02/M14 A3034 RMK A01 T00211137  RH  030%=      5-min Rain = 0
KEA1 020236Z 13006KT 02/M14 A3034 RMK A01 T00221137  RH  030%=      5-min Rain = 0
KEA1 020237Z 13006KT 02/M14 A3035 RMK A01 T00231136  RH  030%=      5-min Rain = 0
KEA1 020238Z 13006KT 02/M14 A3035 RMK A01 T00221137  RH  030%=      5-min Rain = 0
KEA1 020239Z 17006KT 02/M14 A3035 RMK A01 T00201138  RH  030%=      5-min Rain = 0
KEA1 020240Z 17006KT 02/M14 A3035 RMK A01 T00161141  RH  030%=      5-min Rain = 0
KEA1 020241Z 17006KT 01/M14 A3035 RMK A01 T00111140  RH  031%=      5-min Rain = 0
KEA1 020242Z 17006KT 01/M14 A3035 RMK A01 T00081139  RH  032%=      5-min Rain = 0
KEA1 020243Z 17006KT 01/M14 A3035 RMK A01 T00071137  RH  033%=      5-min Rain = 0
KEA1 020244Z 17006KT 01/M14 A3035 RMK A01 T00061136  RH  034%=      5-min Rain = 0
KEA1 020245Z 17006KT 01/M14 A3035 RMK A01 T00051135  RH  034%=      5-min Rain = 0
KEA1 020246Z 17006KT 00/M14 A3035 RMK A01 T00041135  RH  035%=      5-min Rain = 0
KEA1 020247Z 17007KT 00/M13 A3035 RMK A01 T00031134  RH  035%=      5-min Rain = 0
KEA1 020248Z 17007KT 00/M13 A3035 RMK A01 T00021134  RH  035%=      5-min Rain = 0
KEA1 020249Z 16007KT 00/M13 A3035 RMK A01 T00011134  RH  036%=      5-min Rain = 0
KEA1 020250Z 16007KT 00/M13 A3035 RMK A01 T00021132  RH  036%=      5-min Rain = 0
KEA1 020251Z 16007KT 00/M13 A3035 RMK A01 T00011132  RH  036%=      5-min Rain = 0
KEA1 020252Z 16006KT 00/M13 A3035 RMK A01 T00011132  RH  036%=      5-min Rain = 0
KEA1 020253Z 16006KT 00/M13 A3035 RMK A01 T00011132  RH  036%=      5-min Rain = 0
KEA1 020254Z 16006KT 00/13 A3035 RMK A01 T00000-132  RH  036%=      5-min Rain = 0
KEA1 020255Z 16006KT 00/13 A3035 RMK A01 T00-00-132  RH  036%=      5-min Rain = 0
KEA1 020256Z 16006KT 00/13 A3035 RMK A01 T00000-132  RH  036%=      5-min Rain = 0
KEA1 020257Z 16006KT 00/13 A3035 RMK A01 T00-00-132  RH  036%=      5-min Rain = 0
KEA1 020258Z 16006KT 00/13 A3035 RMK A01 T00000-131  RH  036%=      5-min Rain = 0
KEA1 020259Z 16006KT 00/M13 A3035 RMK A01 T00011131  RH  036%=      5-min Rain = 0
KEA1 020300Z 16006KT 00/M13 A3035 RMK A01 T00011132  RH  036%=      5-min Rain = 0
KEA1 020301Z 15006KT 00/M13 A3035 RMK A01 T00021132  RH  036%=      5-min Rain = 0
KEA1 020302Z 15006KT 00/M13 A3035 RMK A01 T00021132  RH  036%=      5-min Rain = 0
KEA1 020303Z 15006KT 00/M13 A3035 RMK A01 T00031132  RH  036%=      5-min Rain = 0
KEA1 020304Z 15006KT 00/M13 A3035 RMK A01 T00041132  RH  035%=      5-min Rain = 0
KEA1 020305Z 15006KT 01/M13 A3035 RMK A01 T00051132  RH  035%=      5-min Rain = 0
KEA1 020306Z 15006KT 01/M13 A3035 RMK A01 T00051132  RH  035%=      5-min Rain = 0
KEA1 020307Z 15006KT 01/M13 A3035 RMK A01 T00061132  RH  035%=      5-min Rain = 0
KEA1 020308Z 15006KT 01/M13 A3035 RMK A01 T00081132  RH  034%=      5-min Rain = 0
KEA1 020309Z 15006KT 01/M13 A3035 RMK A01 T00091132  RH  034%=      5-min Rain = 0
KEA1 020310Z 15006KT 01/M13 A3035 RMK A01 T00111132  RH  033%=      5-min Rain = 0
KEA1 020311Z 14006KT 01/M13 A3035 RMK A01 T00111132  RH  033%=      5-min Rain = 0
KEA1 020312Z 14006KT 01/M13 A3034 RMK A01 T00111132  RH  033%=      5-min Rain = 0
KEA1 020313Z 14006KT 01/M13 A3034 RMK A01 T00121132  RH  033%=      5-min Rain = 0
KEA1 020314Z 14006KT 02/M13 A3034 RMK A01 T00151131  RH  033%=      5-min Rain = 0
KEA1 020315Z 14006KT 02/M13 A3034 RMK A01 T00181131  RH  032%=      5-min Rain = 0
KEA1 020316Z 14006KT 02/M13 A3034 RMK A01 T00181132  RH  032%=      5-min Rain = 0
KEA1 020317Z 14006KT 02/M13 A3034 RMK A01 T00161133  RH  032%=      5-min Rain = 0
KEA1 020318Z 13005KT 02/M13 A3034 RMK A01 T00171133  RH  032%=      5-min Rain = 0
KEA1 020319Z 13006KT 02/M13 A3034 RMK A01 T00181133  RH  032%=      5-min Rain = 0
KEA1 020320Z 13006KT 02/M13 A3034 RMK A01 T00201133  RH  031%=      5-min Rain = 0
KEA1 020321Z 13006KT 02/M13 A3034 RMK A01 T00211133  RH  031%=      5-min Rain = 0
KEA1 020322Z 13006KT 02/M13 A3034 RMK A01 T00201134  RH  031%=      5-min Rain = 0
KEA1 020323Z 13006KT 02/M13 A3034 RMK A01 T00181134  RH  031%=      5-min Rain = 0
KEA1 020324Z 14006KT 02/M14 A3034 RMK A01 T00151135  RH  032%=      5-min Rain = 0
KEA1 020325Z 14006KT 01/M14 A3034 RMK A01 T00101135  RH  033%=      5-min Rain = 0
KEA1 020326Z 14005KT 01/M13 A3034 RMK A01 T00071134  RH  034%=      5-min Rain = 0
KEA1 020327Z 14005KT 01/M13 A3034 RMK A01 T00071133  RH  034%=      5-min Rain = 0
KEA1 020328Z 14005KT 01/M13 A3034 RMK A01 T00091132  RH  034%=      5-min Rain = 0
KEA1 020329Z 14005KT 01/M13 A3034 RMK A01 T00101133  RH  034%=      5-min Rain = 0
KEA1 020330Z 14005KT 01/M13 A3034 RMK A01 T00101133  RH  033%=      5-min Rain = 0
KEA1 020331Z 14005KT 01/M13 A3034 RMK A01 T00091134  RH  034%=      5-min Rain = 0
KEA1 020332Z 14005KT 01/M14 A3034 RMK A01 T00071135  RH  034%=      5-min Rain = 0
KEA1 020333Z 15005KT 00/M14 A3034 RMK A01 T00041135  RH  034%=      5-min Rain = 0
KEA1 020334Z 15005KT 00/M14 A3034 RMK A01 T00031135  RH  035%=      5-min Rain = 0
KEA1 020335Z 16005KT 00/M14 A3034 RMK A01 T00031135  RH  035%=      5-min Rain = 0
KEA1 020336Z 15006KT 00/M14 A3034 RMK A01 T00011136  RH  035%=      5-min Rain = 0
KEA1 020337Z 15006KT 00/14 A3034 RMK A01 T00000-135  RH  035%=      5-min Rain = 0
KEA1 020338Z 15006KT 00/M13 A3034 RMK A01 T00011134  RH  035%=      5-min Rain = 0
KEA1 020339Z 15006KT 00/M13 A3034 RMK A01 T00011134  RH  036%=      5-min Rain = 0
KEA1 020340Z 15006KT 00/M13 A3034 RMK A01 T00031133  RH  035%=      5-min Rain = 0
KEA1 020341Z 14006KT 01/M13 A3034 RMK A01 T00061133  RH  034%=      5-min Rain = 0
KEA1 020342Z 14006KT 01/M13 A3034 RMK A01 T00091133  RH  034%=      5-min Rain = 0
KEA1 020343Z 14006KT 01/M13 A3034 RMK A01 T00111134  RH  033%=      5-min Rain = 0
KEA1 020344Z 14006KT 01/M14 A3034 RMK A01 T00111135  RH  033%=      5-min Rain = 0
KEA1 020345Z 14006KT 01/M14 A3034 RMK A01 T00091136  RH  033%=      5-min Rain = 0
KEA1 020346Z 14006KT 01/M14 A3034 RMK A01 T00061136  RH  034%=      5-min Rain = 0
KEA1 020347Z 14006KT 00/M14 A3034 RMK A01 T00031136  RH  034%=      5-min Rain = 0
KEA1 020348Z 14006KT 00/M14 A3034 RMK A01 T00021135  RH  035%=      5-min Rain = 0
KEA1 020349Z 14006KT 00/13 A3034 RMK A01 T00-00-134  RH  036%=      5-min Rain = 0
KEA1 020350Z 15006KT M00/M14 A3034 RMK A01 T10031135  RH  036%=      5-min Rain = 0
KEA1 020351Z 15006KT M01/M14 A3034 RMK A01 T10051135  RH  037%=      5-min Rain = 0
KEA1 020352Z 16006KT M01/M14 A3034 RMK A01 T10081135  RH  037%=      5-min Rain = 0
KEA1 020353Z 16006KT M01/M14 A3034 RMK A01 T10111136  RH  038%=      5-min Rain = 0
KEA1 020354Z 16006KT M01/M13 A3034 RMK A01 T10111134  RH  039%=      5-min Rain = 0
KEA1 020355Z 16007KT M01/M13 A3034 RMK A01 T10111134  RH  039%=      5-min Rain = 0
KEA1 020356Z 16007KT M01/M13 A3034 RMK A01 T10101134  RH  039%=      5-min Rain = 0
KEA1 020357Z 16007KT M01/M13 A3034 RMK A01 T10101134  RH  038%=      5-min Rain = 0
KEA1 020358Z 15007KT M01/M13 A3034 RMK A01 T10101134  RH  038%=      5-min Rain = 0
KEA1 020359Z 15007KT M01/M13 A3034 RMK A01 T10091134  RH  038%=      5-min Rain = 0
KEA1 020400Z 15009KT M01/M13 A3034 RMK A01 T10091134  RH  038%=      5-min Rain = 0
KEA1 020401Z 14010KT M01/M13 A3034 RMK A01 T10091134  RH  038%=      5-min Rain = 0
KEA1 020402Z 14010KT M01/M14 A3034 RMK A01 T10111135  RH  038%=      5-min Rain = 0
KEA1 020403Z 14009KT M01/M14 A3034 RMK A01 T10141137  RH  038%=      5-min Rain = 0
KEA1 020404Z 14010KT M02/M14 A3034 RMK A01 T10151137  RH  039%=      5-min Rain = 0
KEA1 020405Z 14009KT M02/M14 A3034 RMK A01 T10161136  RH  039%=      5-min Rain = 0
KEA1 020406Z 14009KT M02/M14 A3034 RMK A01 T10161136  RH  040%=      5-min Rain = 0
KEA1 020407Z 14009KT M02/M14 A3034 RMK A01 T10161135  RH  040%=      5-min Rain = 0
KEA1 020408Z 14011KT M02/M14 A3034 RMK A01 T10161135  RH  040%=      5-min Rain = 0
KEA1 020409Z 14010KT M01/M13 A3034 RMK A01 T10121133  RH  039%=      5-min Rain = 0
KEA1 020410Z 14009KT M01/M13 A3034 RMK A01 T10101133  RH  039%=      5-min Rain = 0
KEA1 020411Z 14009KT M01/M13 A3034 RMK A01 T10101134  RH  038%=      5-min Rain = 0
KEA1 020412Z 14008KT M01/M13 A3034 RMK A01 T10101134  RH  039%=      5-min Rain = 0
KEA1 020413Z 15008KT M01/M13 A3034 RMK A01 T10111134  RH  039%=      5-min Rain = 0
KEA1 020414Z 15008KT M01/M13 A3034 RMK A01 T10121134  RH  039%=      5-min Rain = 0
KEA1 020415Z 15008KT M01/M13 A3034 RMK A01 T10111133  RH  039%=      5-min Rain = 0
KEA1 020416Z 15009KT M01/M13 A3034 RMK A01 T10121134  RH  039%=      5-min Rain = 0
KEA1 020417Z 16009KT M01/M13 A3034 RMK A01 T10121134  RH  039%=      5-min Rain = 0
KEA1 020418Z 16009KT M01/M13 A3034 RMK A01 T10121134  RH  039%=      5-min Rain = 0
KEA1 020419Z 16008KT M01/M13 A3034 RMK A01 T10131134  RH  039%=      5-min Rain = 0
KEA1 020420Z 16008KT M01/M14 A3034 RMK A01 T10141135  RH  039%=      5-min Rain = 0
KEA1 020421Z 16008KT M02/M14 A3034 RMK A01 T10151135  RH  040%=      5-min Rain = 0
KEA1 020422Z 17008KT M02/M14 A3034 RMK A01 T10151135  RH  040%=      5-min Rain = 0
KEA1 020423Z 17009KT M02/M13 A3034 RMK A01 T10151134  RH  040%=      5-min Rain = 0
KEA1 020424Z 16008KT M02/M14 A3035 RMK A01 T10161135  RH  040%=      5-min Rain = 0
KEA1 020425Z 14009KT M02/M14 A3035 RMK A01 T10171135  RH  040%=      5-min Rain = 0
KEA1 020426Z 14011KT M02/M14 A3035 RMK A01 T10181135  RH  041%=      5-min Rain = 0
KEA1 020427Z 16011KT M02/M13 A3035 RMK A01 T10181133  RH  041%=      5-min Rain = 0
KEA1 020428Z 18011KT M02/M13 A3035 RMK A01 T10151130  RH  041%=      5-min Rain = 0
KEA1 020429Z 18011KT M01/M13 A3035 RMK A01 T10121126  RH  042%=      5-min Rain = 0
KEA1 020430Z 18011KT M01/M12 A3034 RMK A01 T10101122  RH  042%=      5-min Rain = 0
KEA1 020431Z 18011KT M01/M12 A3035 RMK A01 T10081119  RH  043%=      5-min Rain = 0
KEA1 020432Z 18010KT M01/M12 A3035 RMK A01 T10071115  RH  044%=      5-min Rain = 0
KEA1 020433Z 18010KT M01/M11 A3035 RMK A01 T10061110  RH  045%=      5-min Rain = 0
KEA1 020434Z 19010KT M01/M11 A3035 RMK A01 T10051106  RH  046%=      5-min Rain = 0
KEA1 020435Z 18009KT M01/M10 A3035 RMK A01 T10051104  RH  047%=      5-min Rain = 0
KEA1 020436Z 18009KT M01/M10 A3035 RMK A01 T10051101  RH  048%=      5-min Rain = 0
KEA1 020437Z 18009KT M01/M10 A3035 RMK A01 T10051098  RH  050%=      5-min Rain = 0
KEA1 020438Z 18009KT M01/M10 A3035 RMK A01 T10051095  RH  051%=      5-min Rain = 0
KEA1 020439Z 18009KT M01/M09 A3035 RMK A01 T10051093  RH  051%=      5-min Rain = 0
KEA1 020440Z 18009KT M01/M09 A3035 RMK A01 T10061091  RH  052%=      5-min Rain = 0
KEA1 020441Z 18009KT M01/M09 A3035 RMK A01 T10061090  RH  053%=      5-min Rain = 0
KEA1 020442Z 18009KT M01/M09 A3035 RMK A01 T10071089  RH  054%=      5-min Rain = 0
KEA1 020443Z 18009KT M01/M09 A3035 RMK A01 T10081088  RH  055%=      5-min Rain = 0
KEA1 020444Z 17009KT M01/M09 A3035 RMK A01 T10081086  RH  056%=      5-min Rain = 0
KEA1 020445Z 18009KT M01/M09 A3035 RMK A01 T10091085  RH  056%=      5-min Rain = 0
KEA1 020446Z 18009KT M01/M08 A3035 RMK A01 T10091083  RH  057%=      5-min Rain = 0
KEA1 020447Z 17009KT M01/M08 A3035 RMK A01 T10081082  RH  058%=      5-min Rain = 0
KEA1 020448Z 18008KT M01/M08 A3035 RMK A01 T10091081  RH  058%=      5-min Rain = 0
KEA1 020449Z 18008KT M01/M08 A3035 RMK A01 T10091081  RH  058%=      5-min Rain = 0
KEA1 020450Z 18008KT M01/M08 A3035 RMK A01 T10081079  RH  059%=      5-min Rain = 0
KEA1 020451Z 18008KT M01/M08 A3035 RMK A01 T10091079  RH  059%=      5-min Rain = 0
KEA1 020452Z 18008KT M01/M08 A3035 RMK A01 T10091079  RH  059%=      5-min Rain = 0
KEA1 020453Z 18008KT M01/M08 A3035 RMK A01 T10091079  RH  059%=      5-min Rain = 0
KEA1 020454Z 18008KT M01/M08 A3035 RMK A01 T10091078  RH  059%=      5-min Rain = 0
KEA1 020455Z 18007KT M01/M08 A3035 RMK A01 T10091078  RH  059%=      5-min Rain = 0
KEA1 020456Z 18007KT M01/M08 A3035 RMK A01 T10101079  RH  059%=      5-min Rain = 0
KEA1 020457Z 18007KT M01/M08 A3035 RMK A01 T10111079  RH  060%=      5-min Rain = 0
KEA1 020458Z 18008KT M01/M08 A3035 RMK A01 T10121080  RH  060%=      5-min Rain = 0
KEA1 020459Z 18008KT M01/M08 A3035 RMK A01 T10121080  RH  060%=      5-min Rain = 0
KEA1 020500Z 18007KT M01/M08 A3035 RMK A01 T10131080  RH  060%=      5-min Rain = 0
KEA1 020501Z 18008KT M01/M08 A3035 RMK A01 T10131080  RH  060%=      5-min Rain = 0
KEA1 020502Z 18008KT M02/M08 A3034 RMK A01 T10151081  RH  061%=      5-min Rain = 0
KEA1 020503Z 18008KT M02/M08 A3034 RMK A01 T10151081  RH  061%=      5-min Rain = 0
KEA1 020504Z 18008KT M02/M08 A3034 RMK A01 T10151080  RH  061%=      5-min Rain = 0
KEA1 020505Z 18008KT M02/M08 A3034 RMK A01 T10151080  RH  061%=      5-min Rain = 0
KEA1 020506Z 18008KT M02/M08 A3034 RMK A01 T10161081  RH  061%=      5-min Rain = 0
KEA1 020507Z 19008KT M02/M08 A3034 RMK A01 T10171081  RH  061%=      5-min Rain = 0
KEA1 020508Z 19008KT M02/M08 A3034 RMK A01 T10181081  RH  062%=      5-min Rain = 0
KEA1 020509Z 19008KT M02/M08 A3034 RMK A01 T10191082  RH  062%=      5-min Rain = 0
KEA1 020510Z 19008KT M02/M08 A3034 RMK A01 T10191082  RH  062%=      5-min Rain = 0
KEA1 020511Z 19008KT M02/M08 A3034 RMK A01 T10201082  RH  063%=      5-min Rain = 0
KEA1 020512Z 19008KT M02/M08 A3034 RMK A01 T10201082  RH  063%=      5-min Rain = 0
KEA1 020513Z 19009KT M02/M08 A3034 RMK A01 T10211082  RH  063%=      5-min Rain = 0
KEA1 020514Z 19008KT M02/M08 A3034 RMK A01 T10211082  RH  063%=      5-min Rain = 0
KEA1 020515Z 19008KT M02/M08 A3034 RMK A01 T10211081  RH  063%=      5-min Rain = 0
KEA1 020516Z 19008KT M02/M08 A3034 RMK A01 T10211081  RH  063%=      5-min Rain = 0
KEA1 020517Z 19008KT M02/M08 A3034 RMK A01 T10211081  RH  063%=      5-min Rain = 0
KEA1 020518Z 19008KT M02/M08 A3034 RMK A01 T10211080  RH  064%=      5-min Rain = 0
KEA1 020519Z 19008KT M02/M08 A3034 RMK A01 T10211080  RH  064%=      5-min Rain = 0
KEA1 020520Z 18008KT M02/M08 A3034 RMK A01 T10201080  RH  064%=      5-min Rain = 0
KEA1 020521Z 19008KT M02/M08 A3034 RMK A01 T10201080  RH  064%=      5-min Rain = 0
KEA1 020522Z 19008KT M02/M08 A3034 RMK A01 T10201079  RH  064%=      5-min Rain = 0
KEA1 020523Z 19009KT M02/M08 A3034 RMK A01 T10211080  RH  064%=      5-min Rain = 0
KEA1 020524Z 19009KT M02/M08 A3034 RMK A01 T10221080  RH  065%=      5-min Rain = 0
KEA1 020525Z 19009KT M02/M08 A3034 RMK A01 T10221079  RH  065%=      5-min Rain = 0
KEA1 020526Z 19009KT M02/M08 A3034 RMK A01 T10221078  RH  065%=      5-min Rain = 0
KEA1 020527Z 19009KT M02/M08 A3034 RMK A01 T10221078  RH  065%=      5-min Rain = 0
KEA1 020528Z 19009KT M02/M08 A3034 RMK A01 T10211078  RH  065%=      5-min Rain = 0
KEA1 020529Z 19009KT M02/M08 A3034 RMK A01 T10211077  RH  066%=      5-min Rain = 0
KEA1 020530Z 19009KT M02/M08 A3034 RMK A01 T10211076  RH  066%=      5-min Rain = 0
KEA1 020531Z 19009KT M02/M08 A3034 RMK A01 T10201076  RH  066%=      5-min Rain = 0
KEA1 020532Z 20009KT M02/M08 A3034 RMK A01 T10201076  RH  066%=      5-min Rain = 0
KEA1 020533Z 19009KT M02/M08 A3034 RMK A01 T10201076  RH  066%=      5-min Rain = 0
KEA1 020534Z 19009KT M02/M08 A3034 RMK A01 T10201075  RH  066%=      5-min Rain = 0
KEA1 020535Z 19009KT M02/M08 A3034 RMK A01 T10201075  RH  066%=      5-min Rain = 0
KEA1 020536Z 19009KT M02/M08 A3034 RMK A01 T10201075  RH  066%=      5-min Rain = 0
KEA1 020537Z 18009KT M02/M08 A3034 RMK A01 T10201075  RH  066%=      5-min Rain = 0
KEA1 020538Z 19009KT M02/M07 A3034 RMK A01 T10201074  RH  066%=      5-min Rain = 0
KEA1 020539Z 19009KT M02/M07 A3034 RMK A01 T10191074  RH  066%=      5-min Rain = 0
KEA1 020540Z 19009KT M02/M07 A3034 RMK A01 T10191074  RH  066%=      5-min Rain = 0
KEA1 020541Z 19009KT M02/M07 A3034 RMK A01 T10191074  RH  066%=      5-min Rain = 0
KEA1 020542Z 19010KT M02/M07 A3034 RMK A01 T10191074  RH  066%=      5-min Rain = 0
KEA1 020543Z 19010KT M02/M07 A3034 RMK A01 T10191073  RH  066%=      5-min Rain = 0
KEA1 020544Z 19010KT M02/M07 A3034 RMK A01 T10181072  RH  066%=      5-min Rain = 0
KEA1 020545Z 19010KT M02/M07 A3034 RMK A01 T10181072  RH  066%=      5-min Rain = 0
KEA1 020546Z 19009KT M02/M07 A3034 RMK A01 T10181072  RH  066%=      5-min Rain = 0
KEA1 020547Z 19009KT M02/M07 A3033 RMK A01 T10181072  RH  067%=      5-min Rain = 0
KEA1 020548Z 19009KT M02/M07 A3033 RMK A01 T10181072  RH  067%=      5-min Rain = 0
KEA1 020549Z 19009KT M02/M07 A3033 RMK A01 T10181072  RH  067%=      5-min Rain = 0
KEA1 020550Z 19010KT M02/M07 A3033 RMK A01 T10181072  RH  067%=      5-min Rain = 0
KEA1 020551Z 19010KT M02/M07 A3033 RMK A01 T10181071  RH  067%=      5-min Rain = 0
KEA1 020552Z 20009KT M02/M07 A3033 RMK A01 T10181071  RH  067%=      5-min Rain = 0
KEA1 020553Z 20010KT M02/M07 A3033 RMK A01 T10181071  RH  067%=      5-min Rain = 0
KEA1 020554Z 20009KT M02/M07 A3033 RMK A01 T10181070  RH  067%=      5-min Rain = 0
KEA1 020555Z 20009KT M02/M07 A3033 RMK A01 T10181070  RH  067%=      5-min Rain = 0
KEA1 020556Z 19009KT M02/M07 A3033 RMK A01 T10181071  RH  067%=      5-min Rain = 0
KEA1 020557Z 19009KT M02/M07 A3033 RMK A01 T10181071  RH  067%=      5-min Rain = 0
KEA1 020558Z 19009KT M02/M07 A3033 RMK A01 T10181071  RH  067%=      5-min Rain = 0
KEA1 020559Z 19009KT M02/M07 A3033 RMK A01 T10181070  RH  067%=      5-min Rain = 0

Page generated in 0.066 seconds.